Observation data for Palo Duro Canyon State Park Floor on 02/15/2017      Previous  Date  Next       Current Mesonet Observations  Soil Data  Daily Summary Page  Observations in Plain Language
KPD2 150600Z 27002KT M01/M02 A302 RMK A01 T10061022  RH  089%=      5-min Rain = 0
KPD2 150601Z 26002KT M01/M02 A302 RMK A01 T10071023  RH  089%=      5-min Rain = 0
KPD2 150602Z 27003KT M01/M02 A302 RMK A01 T10071022  RH  089%=      5-min Rain = 0
KPD2 150603Z 28002KT M01/M02 A302 RMK A01 T10071022  RH  090%=      5-min Rain = 0
KPD2 150604Z 27002KT M01/M02 A302 RMK A01 T10071022  RH  090%=      5-min Rain = 0
KPD2 150605Z 26003KT M01/M02 A302 RMK A01 T10081022  RH  090%=      5-min Rain = 0
KPD2 150606Z 26002KT M01/M02 A302 RMK A01 T10081023  RH  090%=      5-min Rain = 0
KPD2 150607Z 27003KT M01/M02 A302 RMK A01 T10081023  RH  090%=      5-min Rain = 0
KPD2 150608Z 26003KT M01/M02 A302 RMK A01 T10081022  RH  090%=      5-min Rain = 0
KPD2 150609Z 27003KT M01/M02 A302 RMK A01 T10081023  RH  090%=      5-min Rain = 0
KPD2 150610Z 26003KT M01/M02 A302 RMK A01 T10081022  RH  090%=      5-min Rain = 0
KPD2 150611Z 26004KT M01/M02 A302 RMK A01 T10081021  RH  090%=      5-min Rain = 0
KPD2 150612Z 27003KT M01/M02 A302 RMK A01 T10071021  RH  090%=      5-min Rain = 0
KPD2 150613Z 26002KT M01/M02 A302 RMK A01 T10071021  RH  090%=      5-min Rain = 0
KPD2 150614Z 26003KT M01/M02 A302 RMK A01 T10071022  RH  090%=      5-min Rain = 0
KPD2 150615Z 26002KT M01/M02 A302 RMK A01 T10071022  RH  090%=      5-min Rain = 0
KPD2 150616Z 26003KT M01/M02 A302 RMK A01 T10071022  RH  090%=      5-min Rain = 0
KPD2 150617Z 26004KT M01/M02 A302 RMK A01 T10071022  RH  090%=      5-min Rain = 0
KPD2 150618Z 26003KT M01/M02 A302 RMK A01 T10061021  RH  090%=      5-min Rain = 0
KPD2 150619Z 26003KT M01/M02 A302 RMK A01 T10051019  RH  090%=      5-min Rain = 0
KPD2 150620Z 26004KT M00/M02 A302 RMK A01 T10041019  RH  090%=      5-min Rain = 0
KPD2 150621Z 26004KT M00/M02 A302 RMK A01 T10031019  RH  089%=      5-min Rain = 0
KPD2 150622Z 27004KT M00/M02 A302 RMK A01 T10021018  RH  089%=      5-min Rain = 0
KPD2 150623Z 27004KT M00/M02 A302 RMK A01 T10011018  RH  088%=      5-min Rain = 0
KPD2 150624Z 27005KT 00/M02 A302 RMK A01 T00011018  RH  087%=      5-min Rain = 0
KPD2 150625Z 28006KT 00/M02 A302 RMK A01 T00021018  RH  087%=      5-min Rain = 0
KPD2 150626Z 28005KT 00/M02 A302 RMK A01 T00031018  RH  086%=      5-min Rain = 0
KPD2 150627Z 28007KT 00/M02 A302 RMK A01 T00031018  RH  085%=      5-min Rain = 0
KPD2 150628Z 29006KT 01/M02 A302 RMK A01 T00051019  RH  085%=      5-min Rain = 0
KPD2 150629Z 29006KT 01/M02 A302 RMK A01 T00061019  RH  084%=      5-min Rain = 0
KPD2 150630Z 29006KT 01/M02 A302 RMK A01 T00061019  RH  083%=      5-min Rain = 0
KPD2 150631Z 29007KT 01/M02 A302 RMK A01 T00061020  RH  083%=      5-min Rain = 0
KPD2 150632Z 30006KT 01/M02 A302 RMK A01 T00061020  RH  083%=      5-min Rain = 0
KPD2 150633Z 29006KT 01/M02 A302 RMK A01 T00061020  RH  083%=      5-min Rain = 0
KPD2 150634Z 30006KT 01/M02 A302 RMK A01 T00061019  RH  083%=      5-min Rain = 0
KPD2 150635Z 30005KT 01/M02 A302 RMK A01 T00061020  RH  083%=      5-min Rain = 0
KPD2 150636Z 30005KT 01/M02 A302 RMK A01 T00061020  RH  083%=      5-min Rain = 0
KPD2 150637Z 31005KT 01/M02 A302 RMK A01 T00061020  RH  083%=      5-min Rain = 0
KPD2 150638Z 31005KT 01/M02 A302 RMK A01 T00061020  RH  083%=      5-min Rain = 0
KPD2 150639Z 31004KT 01/M02 A302 RMK A01 T00071020  RH  082%=      5-min Rain = 0
KPD2 150640Z 31005KT 01/M02 A302 RMK A01 T00071021  RH  082%=      5-min Rain = 0
KPD2 150641Z 32005KT 01/M02 A302 RMK A01 T00071021  RH  082%=      5-min Rain = 0
KPD2 150642Z 32004KT 01/M02 A302 RMK A01 T00061021  RH  082%=      5-min Rain = 0
KPD2 150643Z 31004KT 01/M02 A302 RMK A01 T00061021  RH  082%=      5-min Rain = 0
KPD2 150644Z 32003KT 01/M02 A302 RMK A01 T00061021  RH  082%=      5-min Rain = 0
KPD2 150645Z 32002KT 01/M02 A302 RMK A01 T00061021  RH  082%=      5-min Rain = 0
KPD2 150646Z 32002KT 01/M02 A302 RMK A01 T00051021  RH  083%=      5-min Rain = 0
KPD2 150647Z 32003KT 01/M02 A302 RMK A01 T00051021  RH  083%=      5-min Rain = 0
KPD2 150648Z 32004KT 00/M02 A302 RMK A01 T00041021  RH  083%=      5-min Rain = 0
KPD2 150649Z 31005KT 00/M02 A302 RMK A01 T00041021  RH  083%=      5-min Rain = 0
KPD2 150650Z 30004KT 01/M02 A302 RMK A01 T00051021  RH  083%=      5-min Rain = 0
KPD2 150651Z 30004KT 01/M02 A302 RMK A01 T00061021  RH  083%=      5-min Rain = 0
KPD2 150652Z 30005KT 01/M02 A302 RMK A01 T00061021  RH  082%=      5-min Rain = 0
KPD2 150653Z 29004KT 01/M02 A302 RMK A01 T00071021  RH  082%=      5-min Rain = 0
KPD2 150654Z 29004KT 01/M02 A302 RMK A01 T00071021  RH  082%=      5-min Rain = 0
KPD2 150655Z 30004KT 01/M02 A302 RMK A01 T00071021  RH  081%=      5-min Rain = 0
KPD2 150656Z 30005KT 01/M02 A302 RMK A01 T00081021  RH  081%=      5-min Rain = 0
KPD2 150657Z 29004KT 01/M02 A302 RMK A01 T00081021  RH  081%=      5-min Rain = 0
KPD2 150658Z 30004KT 01/M02 A302 RMK A01 T00081022  RH  081%=      5-min Rain = 0
KPD2 150659Z 29005KT 01/M02 A302 RMK A01 T00081021  RH  081%=      5-min Rain = 0
KPD2 150700Z 30004KT 01/M02 A302 RMK A01 T00081022  RH  080%=      5-min Rain = 0
KPD2 150701Z 30004KT 01/M02 A302 RMK A01 T00081022  RH  081%=      5-min Rain = 0
KPD2 150702Z 30003KT 01/M02 A302 RMK A01 T00081022  RH  081%=      5-min Rain = 0
KPD2 150703Z 29003KT 01/M02 A302 RMK A01 T00081022  RH  081%=      5-min Rain = 0
KPD2 150704Z 31002KT 01/M02 A302 RMK A01 T00071022  RH  081%=      5-min Rain = 0
KPD2 150705Z 32002KT 01/M02 A302 RMK A01 T00071022  RH  081%=      5-min Rain = 0
KPD2 150706Z 30002KT 01/M02 A302 RMK A01 T00071022  RH  081%=      5-min Rain = 0
KPD2 150707Z 30002KT 01/M02 A302 RMK A01 T00061022  RH  081%=      5-min Rain = 0
KPD2 150708Z 32002KT 01/M02 A302 RMK A01 T00061022  RH  081%=      5-min Rain = 0
KPD2 150709Z 28001KT 01/M02 A302 RMK A01 T00061022  RH  081%=      5-min Rain = 0
KPD2 150710Z 28001KT 01/M02 A302 RMK A01 T00061022  RH  082%=      5-min Rain = 0
KPD2 150711Z 30002KT 01/M02 A302 RMK A01 T00051022  RH  082%=      5-min Rain = 0
KPD2 150712Z 31002KT 01/M02 A302 RMK A01 T00051023  RH  082%=      5-min Rain = 0
KPD2 150713Z 32002KT 00/M02 A302 RMK A01 T00041023  RH  082%=      5-min Rain = 0
KPD2 150714Z 32002KT 01/M02 A302 RMK A01 T00051023  RH  082%=      5-min Rain = 0
KPD2 150715Z 33003KT 01/M02 A302 RMK A01 T00051023  RH  081%=      5-min Rain = 0
KPD2 150716Z 31002KT 01/M02 A302 RMK A01 T00061023  RH  081%=      5-min Rain = 0
KPD2 150717Z 30001KT 01/M02 A302 RMK A01 T00071023  RH  081%=      5-min Rain = 0
KPD2 150718Z 32001KT 01/M02 A302 RMK A01 T00051024  RH  081%=      5-min Rain = 0
KPD2 150719Z 35000KT 00/M02 A302 RMK A01 T00041024  RH  081%=      5-min Rain = 0
KPD2 150720Z 33001KT 00/M02 A302 RMK A01 T00041024  RH  081%=      5-min Rain = 0
KPD2 150721Z 33002KT 00/M02 A302 RMK A01 T00041024  RH  081%=      5-min Rain = 0
KPD2 150722Z 30001KT 00/M02 A302 RMK A01 T00041024  RH  082%=      5-min Rain = 0
KPD2 150723Z 31002KT 00/M02 A302 RMK A01 T00041024  RH  082%=      5-min Rain = 0
KPD2 150724Z 28002KT 00/M02 A302 RMK A01 T00041024  RH  082%=      5-min Rain = 0
KPD2 150725Z 28001KT 00/M02 A302 RMK A01 T00041024  RH  082%=      5-min Rain = 0
KPD2 150726Z 26001KT 00/M02 A302 RMK A01 T00031024  RH  082%=      5-min Rain = 0
KPD2 150727Z 27001KT 00/M02 A302 RMK A01 T00021024  RH  083%=      5-min Rain = 0
KPD2 150728Z 30001KT 00/M02 A302 RMK A01 T00021024  RH  083%=      5-min Rain = 0
KPD2 150729Z 29002KT 00/M02 A302 RMK A01 T00011024  RH  083%=      5-min Rain = 0
KPD2 150730Z 30002KT 00/M02 A302 RMK A01 T00011024  RH  083%=      5-min Rain = 0
KPD2 150731Z 32003KT 00/M02 A302 RMK A01 T00011024  RH  084%=      5-min Rain = 0
KPD2 150732Z 28003KT 00/M02 A302 RMK A01 T00021024  RH  083%=      5-min Rain = 0
KPD2 150733Z 29003KT 00/M02 A302 RMK A01 T00021024  RH  083%=      5-min Rain = 0
KPD2 150734Z 31004KT 00/M02 A302 RMK A01 T00031023  RH  083%=      5-min Rain = 0
KPD2 150735Z 31004KT 00/M02 A302 RMK A01 T00041023  RH  082%=      5-min Rain = 0
KPD2 150736Z 31003KT 00/M02 A302 RMK A01 T00041024  RH  082%=      5-min Rain = 0
KPD2 150737Z 32003KT 00/M02 A302 RMK A01 T00041024  RH  082%=      5-min Rain = 0
KPD2 150738Z 32004KT 00/M02 A302 RMK A01 T00041024  RH  081%=      5-min Rain = 0
KPD2 150739Z 32003KT 00/M02 A302 RMK A01 T00041024  RH  081%=      5-min Rain = 0
KPD2 150740Z 32004KT 00/M03 A302 RMK A01 T00041025  RH  081%=      5-min Rain = 0
KPD2 150741Z 32003KT 01/M02 A302 RMK A01 T00051024  RH  081%=      5-min Rain = 0
KPD2 150742Z 32003KT 01/M03 A302 RMK A01 T00051025  RH  081%=      5-min Rain = 0
KPD2 150743Z 32004KT 01/M03 A302 RMK A01 T00051025  RH  081%=      5-min Rain = 0
KPD2 150744Z 32003KT 00/M03 A302 RMK A01 T00041025  RH  081%=      5-min Rain = 0
KPD2 150745Z 32004KT 00/M03 A302 RMK A01 T00041025  RH  081%=      5-min Rain = 0
KPD2 150746Z 31004KT 01/M02 A302 RMK A01 T00051024  RH  081%=      5-min Rain = 0
KPD2 150747Z 31004KT 01/M02 A302 RMK A01 T00061024  RH  080%=      5-min Rain = 0
KPD2 150748Z 31004KT 01/M02 A302 RMK A01 T00071024  RH  080%=      5-min Rain = 0
KPD2 150749Z 31004KT 01/M02 A302 RMK A01 T00071024  RH  080%=      5-min Rain = 0
KPD2 150750Z 32005KT 01/M03 A302 RMK A01 T00061025  RH  080%=      5-min Rain = 0
KPD2 150751Z 32004KT 01/M02 A302 RMK A01 T00071024  RH  080%=      5-min Rain = 0
KPD2 150752Z 32005KT 01/M03 A302 RMK A01 T00071025  RH  079%=      5-min Rain = 0
KPD2 150753Z 32005KT 01/M03 A302 RMK A01 T00081025  RH  079%=      5-min Rain = 0
KPD2 150754Z 31004KT 01/M02 A302 RMK A01 T00091024  RH  078%=      5-min Rain = 0
KPD2 150755Z 32005KT 01/M03 A302 RMK A01 T00091025  RH  078%=      5-min Rain = 0
KPD2 150756Z 31005KT 01/M03 A302 RMK A01 T00081025  RH  079%=      5-min Rain = 0
KPD2 150757Z 32004KT 01/M03 A3021 RMK A01 T00081025  RH  078%=      5-min Rain = 0
KPD2 150758Z 32005KT 01/M03 A3021 RMK A01 T00081025  RH  078%=      5-min Rain = 0
KPD2 150759Z 32005KT 01/M03 A3021 RMK A01 T00081025  RH  078%=      5-min Rain = 0
KPD2 150800Z 32004KT 01/M03 A3021 RMK A01 T00081025  RH  078%=      5-min Rain = 0
KPD2 150801Z 32004KT 01/M03 A3021 RMK A01 T00081025  RH  078%=      5-min Rain = 0
KPD2 150802Z 32005KT 01/M03 A3021 RMK A01 T00091025  RH  078%=      5-min Rain = 0
KPD2 150803Z 32005KT 01/M03 A3021 RMK A01 T00091025  RH  078%=      5-min Rain = 0
KPD2 150804Z 33005KT 01/M03 A3021 RMK A01 T00091026  RH  078%=      5-min Rain = 0
KPD2 150805Z 32004KT 01/M03 A3021 RMK A01 T00091025  RH  078%=      5-min Rain = 0
KPD2 150806Z 33005KT 01/M03 A3021 RMK A01 T00091025  RH  078%=      5-min Rain = 0
KPD2 150807Z 33004KT 01/M03 A3021 RMK A01 T00091025  RH  078%=      5-min Rain = 0
KPD2 150808Z 32004KT 01/M03 A3021 RMK A01 T00091026  RH  078%=      5-min Rain = 0
KPD2 150809Z 32004KT 01/M03 A3021 RMK A01 T00091025  RH  078%=      5-min Rain = 0
KPD2 150810Z 31005KT 01/M03 A3021 RMK A01 T00091025  RH  078%=      5-min Rain = 0
KPD2 150811Z 32006KT 01/M03 A3021 RMK A01 T00091025  RH  078%=      5-min Rain = 0
KPD2 150812Z 32006KT 01/M03 A3021 RMK A01 T00101025  RH  078%=      5-min Rain = 0
KPD2 150813Z 32006KT 01/M03 A3021 RMK A01 T00111025  RH  077%=      5-min Rain = 0
KPD2 150814Z 32006KT 01/M03 A3021 RMK A01 T00121025  RH  077%=      5-min Rain = 0
KPD2 150815Z 31005KT 01/M03 A3021 RMK A01 T00121025  RH  076%=      5-min Rain = 0
KPD2 150816Z 31005KT 01/M02 A3021 RMK A01 T00131024  RH  076%=      5-min Rain = 0
KPD2 150817Z 30004KT 01/M03 A3021 RMK A01 T00121025  RH  076%=      5-min Rain = 0
KPD2 150818Z 30004KT 01/M03 A3021 RMK A01 T00121025  RH  076%=      5-min Rain = 0
KPD2 150819Z 30004KT 01/M03 A3021 RMK A01 T00111025  RH  077%=      5-min Rain = 0
KPD2 150820Z 29004KT 01/M03 A3021 RMK A01 T00111025  RH  077%=      5-min Rain = 0
KPD2 150821Z 29004KT 01/M03 A3021 RMK A01 T00101025  RH  077%=      5-min Rain = 0
KPD2 150822Z 29004KT 01/M03 A3021 RMK A01 T00101025  RH  077%=      5-min Rain = 0
KPD2 150823Z 28004KT 01/M03 A3021 RMK A01 T00091025  RH  078%=      5-min Rain = 0
KPD2 150824Z 28003KT 01/M03 A3021 RMK A01 T00081025  RH  078%=      5-min Rain = 0
KPD2 150825Z 28004KT 01/M03 A3021 RMK A01 T00071025  RH  079%=      5-min Rain = 0
KPD2 150826Z 28004KT 01/M03 A3021 RMK A01 T00061025  RH  080%=      5-min Rain = 0
KPD2 150827Z 28003KT 01/M03 A3021 RMK A01 T00051025  RH  080%=      5-min Rain = 0
KPD2 150828Z 28003KT 00/M03 A3021 RMK A01 T00041025  RH  081%=      5-min Rain = 0
KPD2 150829Z 27003KT 00/M03 A3021 RMK A01 T00041025  RH  081%=      5-min Rain = 0
KPD2 150830Z 28003KT 00/M03 A3021 RMK A01 T00031025  RH  081%=      5-min Rain = 0
KPD2 150831Z 28003KT 00/M02 A3021 RMK A01 T00031024  RH  082%=      5-min Rain = 0
KPD2 150832Z 28003KT 00/M02 A3021 RMK A01 T00031024  RH  082%=      5-min Rain = 0
KPD2 150833Z 29003KT 00/M02 A3021 RMK A01 T00031024  RH  082%=      5-min Rain = 0
KPD2 150834Z 28002KT 00/M02 A3021 RMK A01 T00021024  RH  083%=      5-min Rain = 0
KPD2 150835Z 27002KT 00/M02 A3021 RMK A01 T00011024  RH  083%=      5-min Rain = 0
KPD2 150836Z 26003KT 00/M02 A3021 RMK A01 T00011024  RH  083%=      5-min Rain = 0
KPD2 150837Z 26003KT 00/M02 A3021 RMK A01 T00021024  RH  083%=      5-min Rain = 0
KPD2 150838Z 26003KT 00/M02 A3021 RMK A01 T00011024  RH  083%=      5-min Rain = 0
KPD2 150839Z 26003KT 00/M02 A3021 RMK A01 T00011024  RH  083%=      5-min Rain = 0
KPD2 150840Z 26003KT 00/M02 A3021 RMK A01 T00011024  RH  083%=      5-min Rain = 0
KPD2 150841Z 26003KT 00/M02 A3021 RMK A01 T00011024  RH  083%=      5-min Rain = 0
KPD2 150842Z 26004KT 00/02 A3021 RMK A01 T00000-24  RH  084%=      5-min Rain = 0
KPD2 150843Z 26004KT 00/03 A3021 RMK A01 T00-00-25  RH  084%=      5-min Rain = 0
KPD2 150844Z 27003KT 00/03 A3021 RMK A01 T00000-25  RH  083%=      5-min Rain = 0
KPD2 150845Z 27003KT 00/03 A3021 RMK A01 T00000-25  RH  083%=      5-min Rain = 0
KPD2 150846Z 27003KT 00/03 A3021 RMK A01 T00-00-25  RH  083%=      5-min Rain = 0
KPD2 150847Z 26003KT 00/M03 A3021 RMK A01 T00011025  RH  083%=      5-min Rain = 0
KPD2 150848Z 27003KT 00/03 A3021 RMK A01 T00000-25  RH  083%=      5-min Rain = 0
KPD2 150849Z 27003KT 00/03 A3021 RMK A01 T00000-25  RH  083%=      5-min Rain = 0
KPD2 150850Z 27003KT 00/03 A3021 RMK A01 T00000-25  RH  083%=      5-min Rain = 0
KPD2 150851Z 27003KT 00/03 A3021 RMK A01 T00-00-25  RH  083%=      5-min Rain = 0
KPD2 150852Z 27003KT 00/M03 A3021 RMK A01 T00011025  RH  083%=      5-min Rain = 0
KPD2 150853Z 27003KT 00/M03 A3021 RMK A01 T00011025  RH  083%=      5-min Rain = 0
KPD2 150854Z 27003KT 00/M03 A3021 RMK A01 T00011025  RH  083%=      5-min Rain = 0
KPD2 150855Z 26003KT 00/03 A3021 RMK A01 T00000-26  RH  083%=      5-min Rain = 0
KPD2 150856Z 26003KT 00/03 A3021 RMK A01 T00000-26  RH  083%=      5-min Rain = 0
KPD2 150857Z 26003KT M00/M03 A3021 RMK A01 T10011026  RH  083%=      5-min Rain = 0
KPD2 150858Z 26003KT M00/M03 A3021 RMK A01 T10011026  RH  083%=      5-min Rain = 0
KPD2 150859Z 26003KT M00/M03 A3021 RMK A01 T10021027  RH  083%=      5-min Rain = 0
KPD2 150900Z 26002KT M00/M03 A3021 RMK A01 T10021027  RH  084%=      5-min Rain = 0
KPD2 150901Z 26003KT M00/M03 A3021 RMK A01 T10031027  RH  084%=      5-min Rain = 0
KPD2 150902Z 27003KT M00/M03 A3021 RMK A01 T10031026  RH  084%=      5-min Rain = 0
KPD2 150903Z 26003KT M00/M03 A3021 RMK A01 T10021026  RH  084%=      5-min Rain = 0
KPD2 150904Z 27003KT M00/M03 A3021 RMK A01 T10021026  RH  084%=      5-min Rain = 0
KPD2 150905Z 27003KT M00/M03 A3021 RMK A01 T10021026  RH  084%=      5-min Rain = 0
KPD2 150906Z 26003KT M00/M03 A3021 RMK A01 T10021026  RH  084%=      5-min Rain = 0
KPD2 150907Z 27003KT M00/M03 A3021 RMK A01 T10021026  RH  084%=      5-min Rain = 0
KPD2 150908Z 27003KT M00/M03 A3021 RMK A01 T10011026  RH  084%=      5-min Rain = 0
KPD2 150909Z 26003KT M00/M03 A3021 RMK A01 T10011026  RH  083%=      5-min Rain = 0
KPD2 150910Z 27004KT 00/03 A3021 RMK A01 T00-00-26  RH  083%=      5-min Rain = 0
KPD2 150911Z 27004KT 00/M03 A3021 RMK A01 T00011026  RH  082%=      5-min Rain = 0
KPD2 150912Z 27004KT 00/M03 A3021 RMK A01 T00021026  RH  082%=      5-min Rain = 0
KPD2 150913Z 27004KT 00/M03 A3021 RMK A01 T00021026  RH  081%=      5-min Rain = 0
KPD2 150914Z 27003KT 00/M03 A3021 RMK A01 T00021027  RH  081%=      5-min Rain = 0
KPD2 150915Z 27003KT 00/M03 A3021 RMK A01 T00011027  RH  081%=      5-min Rain = 0
KPD2 150916Z 27003KT 00/M03 A3021 RMK A01 T00011027  RH  081%=      5-min Rain = 0
KPD2 150917Z 27003KT 00/M03 A3021 RMK A01 T00011027  RH  081%=      5-min Rain = 0
KPD2 150918Z 27004KT 00/M03 A3021 RMK A01 T00011027  RH  081%=      5-min Rain = 0
KPD2 150919Z 27004KT 00/M03 A3021 RMK A01 T00011027  RH  082%=      5-min Rain = 0
KPD2 150920Z 26003KT 00/03 A3021 RMK A01 T00000-27  RH  082%=      5-min Rain = 0
KPD2 150921Z 27003KT 00/M03 A3021 RMK A01 T00011027  RH  082%=      5-min Rain = 0
KPD2 150922Z 27003KT 00/M03 A3021 RMK A01 T00011027  RH  082%=      5-min Rain = 0
KPD2 150923Z 27003KT 00/03 A3021 RMK A01 T00000-27  RH  082%=      5-min Rain = 0
KPD2 150924Z 27004KT 00/03 A3021 RMK A01 T00000-28  RH  082%=      5-min Rain = 0
KPD2 150925Z 27004KT 00/03 A3021 RMK A01 T00000-28  RH  082%=      5-min Rain = 0
KPD2 150926Z 28004KT 00/M03 A3021 RMK A01 T00011027  RH  081%=      5-min Rain = 0
KPD2 150927Z 28003KT 00/M03 A3021 RMK A01 T00021027  RH  081%=      5-min Rain = 0
KPD2 150928Z 28003KT 00/M03 A3021 RMK A01 T00021028  RH  080%=      5-min Rain = 0
KPD2 150929Z 28004KT 00/M03 A3021 RMK A01 T00031028  RH  080%=      5-min Rain = 0
KPD2 150930Z 27003KT 00/M03 A3021 RMK A01 T00031028  RH  080%=      5-min Rain = 0
KPD2 150931Z 28004KT 00/M03 A3022 RMK A01 T00011030  RH  080%=      5-min Rain = 0
KPD2 150932Z 28003KT 00/M03 A3022 RMK A01 T00011029  RH  080%=      5-min Rain = 0
KPD2 150933Z 27003KT 00/03 A3022 RMK A01 T00000-29  RH  081%=      5-min Rain = 0
KPD2 150934Z 29005KT M00/M03 A3022 RMK A01 T10011030  RH  081%=      5-min Rain = 0
KPD2 150935Z 30005KT 00/M03 A3022 RMK A01 T00011028  RH  081%=      5-min Rain = 0
KPD2 150936Z 29005KT 01/M03 A3022 RMK A01 T00051027  RH  079%=      5-min Rain = 0
KPD2 150937Z 30006KT 01/M03 A3022 RMK A01 T00061028  RH  078%=      5-min Rain = 0
KPD2 150938Z 30005KT 01/M03 A3022 RMK A01 T00071029  RH  077%=      5-min Rain = 0
KPD2 150939Z 29004KT 01/M03 A3022 RMK A01 T00071029  RH  077%=      5-min Rain = 0
KPD2 150940Z 30005KT 01/M03 A3022 RMK A01 T00071030  RH  076%=      5-min Rain = 0
KPD2 150941Z 30003KT 01/M03 A3022 RMK A01 T00061030  RH  077%=      5-min Rain = 0
KPD2 150942Z 30004KT 01/M03 A3022 RMK A01 T00061030  RH  077%=      5-min Rain = 0
KPD2 150943Z 31004KT 01/M03 A3022 RMK A01 T00061030  RH  077%=      5-min Rain = 0
KPD2 150944Z 31005KT 01/M03 A3022 RMK A01 T00061030  RH  076%=      5-min Rain = 0
KPD2 150945Z 31005KT 01/M03 A3022 RMK A01 T00061031  RH  076%=      5-min Rain = 0
KPD2 150946Z 30004KT 01/M03 A3022 RMK A01 T00061031  RH  076%=      5-min Rain = 0
KPD2 150947Z 31004KT 01/M03 A3022 RMK A01 T00051032  RH  077%=      5-min Rain = 0
KPD2 150948Z 30003KT 01/M03 A3022 RMK A01 T00051031  RH  077%=      5-min Rain = 0
KPD2 150949Z 31003KT 01/M03 A3022 RMK A01 T00051031  RH  077%=      5-min Rain = 0
KPD2 150950Z 31004KT 01/M03 A3022 RMK A01 T00051031  RH  076%=      5-min Rain = 0
KPD2 150951Z 31004KT 01/M03 A3022 RMK A01 T00051031  RH  076%=      5-min Rain = 0
KPD2 150952Z 31004KT 01/M03 A3022 RMK A01 T00061031  RH  076%=      5-min Rain = 0
KPD2 150953Z 30004KT 01/M03 A3022 RMK A01 T00061031  RH  076%=      5-min Rain = 0
KPD2 150954Z 30004KT 01/M03 A3022 RMK A01 T00061032  RH  076%=      5-min Rain = 0
KPD2 150955Z 30003KT 01/M03 A3022 RMK A01 T00071031  RH  076%=      5-min Rain = 0
KPD2 150956Z 29003KT 01/M03 A3022 RMK A01 T00071031  RH  076%=      5-min Rain = 0
KPD2 150957Z 29003KT 01/M03 A3022 RMK A01 T00071031  RH  076%=      5-min Rain = 0
KPD2 150958Z 30002KT 01/M03 A3022 RMK A01 T00061031  RH  076%=      5-min Rain = 0
KPD2 150959Z 30003KT 01/M03 A3022 RMK A01 T00061031  RH  076%=      5-min Rain = 0
KPD2 151000Z 31004KT 01/M03 A3022 RMK A01 T00051031  RH  076%=      5-min Rain = 0
KPD2 151001Z 32004KT 01/M03 A3022 RMK A01 T00051032  RH  076%=      5-min Rain = 0
KPD2 151002Z 31004KT 01/M03 A3022 RMK A01 T00051032  RH  076%=      5-min Rain = 0
KPD2 151003Z 31004KT 01/M03 A3022 RMK A01 T00051032  RH  076%=      5-min Rain = 0
KPD2 151004Z 31004KT 01/M03 A3022 RMK A01 T00051032  RH  076%=      5-min Rain = 0
KPD2 151005Z 31004KT 01/M03 A3022 RMK A01 T00051032  RH  076%=      5-min Rain = 0
KPD2 151006Z 31004KT 01/M03 A3022 RMK A01 T00051032  RH  076%=      5-min Rain = 0
KPD2 151007Z 31004KT 01/M03 A3022 RMK A01 T00051032  RH  076%=      5-min Rain = 0
KPD2 151008Z 30003KT 01/M03 A3022 RMK A01 T00051032  RH  076%=      5-min Rain = 0
KPD2 151009Z 30004KT 01/M03 A3022 RMK A01 T00051032  RH  076%=      5-min Rain = 0
KPD2 151010Z 31004KT 01/M03 A3022 RMK A01 T00051032  RH  076%=      5-min Rain = 0
KPD2 151011Z 30004KT 01/M03 A3022 RMK A01 T00051032  RH  076%=      5-min Rain = 0
KPD2 151012Z 30004KT 00/M03 A3022 RMK A01 T00041032  RH  076%=      5-min Rain = 0
KPD2 151013Z 30003KT 01/M03 A3022 RMK A01 T00051032  RH  076%=      5-min Rain = 0
KPD2 151014Z 30004KT 01/M03 A3022 RMK A01 T00051032  RH  076%=      5-min Rain = 0
KPD2 151015Z 30004KT 01/M03 A3022 RMK A01 T00051033  RH  076%=      5-min Rain = 0
KPD2 151016Z 30004KT 01/M03 A3022 RMK A01 T00051033  RH  076%=      5-min Rain = 0
KPD2 151017Z 29005KT 01/M03 A3022 RMK A01 T00051033  RH  076%=      5-min Rain = 0
KPD2 151018Z 29005KT 00/M03 A3022 RMK A01 T00041033  RH  076%=      5-min Rain = 0
KPD2 151019Z 29004KT 00/M03 A3022 RMK A01 T00041032  RH  077%=      5-min Rain = 0
KPD2 151020Z 29004KT 00/M03 A3022 RMK A01 T00041032  RH  077%=      5-min Rain = 0
KPD2 151021Z 29004KT 00/M03 A3022 RMK A01 T00031033  RH  077%=      5-min Rain = 0
KPD2 151022Z 30004KT 00/M03 A3022 RMK A01 T00031033  RH  077%=      5-min Rain = 0
KPD2 151023Z 29004KT 00/M03 A3022 RMK A01 T00031033  RH  077%=      5-min Rain = 0
KPD2 151024Z 29004KT 00/M03 A3022 RMK A01 T00031033  RH  077%=      5-min Rain = 0
KPD2 151025Z 29004KT 00/M03 A3022 RMK A01 T00021033  RH  077%=      5-min Rain = 0
KPD2 151026Z 29004KT 00/M03 A3022 RMK A01 T00021033  RH  077%=      5-min Rain = 0
KPD2 151027Z 29004KT 00/M03 A3022 RMK A01 T00011034  RH  077%=      5-min Rain = 0
KPD2 151028Z 29004KT 00/M03 A3022 RMK A01 T00021033  RH  077%=      5-min Rain = 0
KPD2 151029Z 29004KT 00/M03 A3022 RMK A01 T00021033  RH  078%=      5-min Rain = 0
KPD2 151030Z 29004KT 00/M03 A3022 RMK A01 T00021033  RH  078%=      5-min Rain = 0
KPD2 151031Z 30005KT 00/M03 A3022 RMK A01 T00021033  RH  077%=      5-min Rain = 0
KPD2 151032Z 29004KT 00/M03 A3022 RMK A01 T00021033  RH  077%=      5-min Rain = 0
KPD2 151033Z 29005KT 00/M03 A3022 RMK A01 T00021034  RH  077%=      5-min Rain = 0
KPD2 151034Z 30005KT 00/M03 A3022 RMK A01 T00021034  RH  077%=      5-min Rain = 0
KPD2 151035Z 30005KT 00/M03 A3022 RMK A01 T00011034  RH  077%=      5-min Rain = 0
KPD2 151036Z 30004KT 00/M03 A3022 RMK A01 T00011034  RH  077%=      5-min Rain = 0
KPD2 151037Z 30005KT 00/M03 A3022 RMK A01 T00011034  RH  077%=      5-min Rain = 0
KPD2 151038Z 30005KT 00/M03 A3022 RMK A01 T00011034  RH  077%=      5-min Rain = 0
KPD2 151039Z 29004KT 00/M03 A3023 RMK A01 T00011034  RH  077%=      5-min Rain = 0
KPD2 151040Z 29005KT 00/M03 A3022 RMK A01 T00011034  RH  077%=      5-min Rain = 0
KPD2 151041Z 30004KT 00/M03 A3022 RMK A01 T00011034  RH  077%=      5-min Rain = 0
KPD2 151042Z 29004KT 00/M03 A3022 RMK A01 T00021034  RH  077%=      5-min Rain = 0
KPD2 151043Z 30006KT 00/M03 A3022 RMK A01 T00021034  RH  077%=      5-min Rain = 0
KPD2 151044Z 29004KT 00/M03 A3023 RMK A01 T00021034  RH  077%=      5-min Rain = 0
KPD2 151045Z 30005KT 00/M03 A3023 RMK A01 T00021034  RH  077%=      5-min Rain = 0
KPD2 151046Z 30005KT 00/M03 A3023 RMK A01 T00021034  RH  077%=      5-min Rain = 0
KPD2 151047Z 29005KT 00/M03 A3023 RMK A01 T00021034  RH  077%=      5-min Rain = 0
KPD2 151048Z 29005KT 00/M03 A3023 RMK A01 T00021034  RH  077%=      5-min Rain = 0
KPD2 151049Z 30005KT 00/M03 A3023 RMK A01 T00021034  RH  077%=      5-min Rain = 0
KPD2 151050Z 30005KT 00/M03 A3022 RMK A01 T00021034  RH  077%=      5-min Rain = 0
KPD2 151051Z 30005KT 00/M04 A3022 RMK A01 T00011035  RH  077%=      5-min Rain = 0
KPD2 151052Z 31005KT 00/M03 A3022 RMK A01 T00021034  RH  077%=      5-min Rain = 0
KPD2 151053Z 30004KT 00/M04 A3022 RMK A01 T00011035  RH  077%=      5-min Rain = 0
KPD2 151054Z 30004KT 00/04 A3022 RMK A01 T00000-35  RH  077%=      5-min Rain = 0
KPD2 151055Z 30005KT 00/04 A3022 RMK A01 T00000-35  RH  077%=      5-min Rain = 0
KPD2 151056Z 30004KT 00/04 A3023 RMK A01 T00000-35  RH  077%=      5-min Rain = 0
KPD2 151057Z 31004KT 00/04 A3022 RMK A01 T00000-35  RH  077%=      5-min Rain = 0
KPD2 151058Z 31004KT 00/04 A3022 RMK A01 T00-00-35  RH  077%=      5-min Rain = 0
KPD2 151059Z 31004KT M00/M04 A3022 RMK A01 T10011035  RH  078%=      5-min Rain = 0
KPD2 151100Z 31005KT M00/M04 A3022 RMK A01 T10011035  RH  078%=      5-min Rain = 0
KPD2 151101Z 31004KT M00/M04 A3022 RMK A01 T10011035  RH  078%=      5-min Rain = 0
KPD2 151102Z 31004KT M00/M04 A3022 RMK A01 T10011035  RH  078%=      5-min Rain = 0
KPD2 151103Z 31004KT M00/M04 A3022 RMK A01 T10011035  RH  078%=      5-min Rain = 0
KPD2 151104Z 31005KT M00/M04 A3022 RMK A01 T10021036  RH  078%=      5-min Rain = 0
KPD2 151105Z 31005KT M00/M04 A3022 RMK A01 T10021036  RH  078%=      5-min Rain = 0
KPD2 151106Z 32004KT 00/04 A3022 RMK A01 T00000-35  RH  077%=      5-min Rain = 0
KPD2 151107Z 32005KT 00/M04 A3022 RMK A01 T00011035  RH  077%=      5-min Rain = 0
KPD2 151108Z 31005KT 00/04 A3023 RMK A01 T00000-36  RH  077%=      5-min Rain = 0
KPD2 151109Z 31004KT 00/04 A3023 RMK A01 T00000-35  RH  077%=      5-min Rain = 0
KPD2 151110Z 32004KT 00/M04 A3023 RMK A01 T00011035  RH  077%=      5-min Rain = 0
KPD2 151111Z 31004KT 00/M04 A3023 RMK A01 T00011036  RH  077%=      5-min Rain = 0
KPD2 151112Z 32004KT 00/04 A3023 RMK A01 T00000-35  RH  077%=      5-min Rain = 0
KPD2 151113Z 32004KT 00/04 A3023 RMK A01 T00000-35  RH  077%=      5-min Rain = 0
KPD2 151114Z 30005KT 00/04 A3023 RMK A01 T00-00-35  RH  077%=      5-min Rain = 0
KPD2 151115Z 31006KT 00/04 A3023 RMK A01 T00000-35  RH  077%=      5-min Rain = 0
KPD2 151116Z 31005KT 00/M04 A3023 RMK A01 T00011035  RH  077%=      5-min Rain = 0
KPD2 151117Z 32005KT 00/M04 A3023 RMK A01 T00011035  RH  076%=      5-min Rain = 0
KPD2 151118Z 31004KT 00/M04 A3023 RMK A01 T00011035  RH  077%=      5-min Rain = 0
KPD2 151119Z 31005KT 00/04 A3023 RMK A01 T00000-36  RH  077%=      5-min Rain = 0
KPD2 151120Z 30005KT 00/04 A3023 RMK A01 T00000-35  RH  077%=      5-min Rain = 0
KPD2 151121Z 30006KT 00/04 A3023 RMK A01 T00000-35  RH  077%=      5-min Rain = 0
KPD2 151122Z 31007KT 00/04 A3023 RMK A01 T00000-36  RH  077%=      5-min Rain = 0
KPD2 151123Z 31005KT 00/M04 A3023 RMK A01 T00011035  RH  077%=      5-min Rain = 0
KPD2 151124Z 31005KT 00/M03 A3023 RMK A01 T00021034  RH  076%=      5-min Rain = 0
KPD2 151125Z 30004KT 00/M04 A3023 RMK A01 T00021035  RH  076%=      5-min Rain = 0
KPD2 151126Z 29005KT 00/M04 A3023 RMK A01 T00021035  RH  076%=      5-min Rain = 0
KPD2 151127Z 29007KT 00/M04 A3023 RMK A01 T00021035  RH  076%=      5-min Rain = 0
KPD2 151128Z 30006KT 00/M04 A3023 RMK A01 T00021035  RH  076%=      5-min Rain = 0
KPD2 151129Z 30006KT 00/M04 A3023 RMK A01 T00031035  RH  076%=      5-min Rain = 0
KPD2 151130Z 30006KT 00/M04 A3023 RMK A01 T00021035  RH  076%=      5-min Rain = 0
KPD2 151131Z 29005KT 00/M04 A3023 RMK A01 T00021035  RH  076%=      5-min Rain = 0
KPD2 151132Z 29005KT 00/M04 A3023 RMK A01 T00011035  RH  077%=      5-min Rain = 0
KPD2 151133Z 28005KT 00/M04 A3023 RMK A01 T00011035  RH  077%=      5-min Rain = 0
KPD2 151134Z 28005KT 00/M04 A3023 RMK A01 T00011035  RH  076%=      5-min Rain = 0
KPD2 151135Z 28005KT 00/M04 A3023 RMK A01 T00021035  RH  076%=      5-min Rain = 0
KPD2 151136Z 29005KT 00/M04 A3023 RMK A01 T00011035  RH  077%=      5-min Rain = 0
KPD2 151137Z 29006KT 00/M04 A3023 RMK A01 T00011035  RH  077%=      5-min Rain = 0
KPD2 151138Z 28004KT 00/M04 A3023 RMK A01 T00011035  RH  077%=      5-min Rain = 0
KPD2 151139Z 28005KT 00/M04 A3023 RMK A01 T00011035  RH  077%=      5-min Rain = 0
KPD2 151140Z 28006KT 00/04 A3023 RMK A01 T00000-35  RH  077%=      5-min Rain = 0
KPD2 151141Z 29005KT 00/04 A3023 RMK A01 T00000-35  RH  077%=      5-min Rain = 0
KPD2 151142Z 29005KT 00/04 A3023 RMK A01 T00-00-35  RH  077%=      5-min Rain = 0
KPD2 151143Z 29005KT 00/04 A3023 RMK A01 T00-00-35  RH  078%=      5-min Rain = 0
KPD2 151144Z 29005KT 00/03 A3023 RMK A01 T00-00-34  RH  078%=      5-min Rain = 0
KPD2 151145Z 28004KT 00/04 A3023 RMK A01 T00-00-35  RH  077%=      5-min Rain = 0
KPD2 151146Z 28006KT M00/M04 A3023 RMK A01 T10011035  RH  078%=      5-min Rain = 0
KPD2 151147Z 28004KT M00/M04 A3023 RMK A01 T10011035  RH  078%=      5-min Rain = 0
KPD2 151148Z 28004KT M00/M04 A3023 RMK A01 T10011035  RH  078%=      5-min Rain = 0
KPD2 151149Z 27004KT M00/M04 A3023 RMK A01 T10011035  RH  078%=      5-min Rain = 0
KPD2 151150Z 28005KT M00/M04 A3023 RMK A01 T10011035  RH  078%=      5-min Rain = 0
KPD2 151151Z 28005KT M00/M04 A3023 RMK A01 T10011035  RH  078%=      5-min Rain = 0
KPD2 151152Z 28005KT 00/04 A3023 RMK A01 T00-00-35  RH  078%=      5-min Rain = 0
KPD2 151153Z 28004KT 00/04 A3023 RMK A01 T00000-35  RH  077%=      5-min Rain = 0
KPD2 151154Z 27005KT 00/04 A3023 RMK A01 T00-00-35  RH  077%=      5-min Rain = 0
KPD2 151155Z 28005KT M00/M04 A3023 RMK A01 T10011035  RH  078%=      5-min Rain = 0
KPD2 151156Z 29004KT M00/M04 A3023 RMK A01 T10011035  RH  078%=      5-min Rain = 0
KPD2 151157Z 29004KT M00/M04 A3023 RMK A01 T10021036  RH  078%=      5-min Rain = 0
KPD2 151158Z 29004KT M00/M04 A3023 RMK A01 T10031036  RH  079%=      5-min Rain = 0
KPD2 151159Z 29004KT M00/M04 A3023 RMK A01 T10041036  RH  079%=      5-min Rain = 0
KPD2 151200Z 29006KT M00/M04 A3023 RMK A01 T10041036  RH  079%=      5-min Rain = 0
KPD2 151201Z 30004KT M01/M04 A3023 RMK A01 T10051036  RH  079%=      5-min Rain = 0
KPD2 151202Z 32004KT M01/M04 A3023 RMK A01 T10051036  RH  080%=      5-min Rain = 0
KPD2 151203Z 31004KT M01/M04 A3023 RMK A01 T10051036  RH  080%=      5-min Rain = 0
KPD2 151204Z 30005KT M01/M04 A3023 RMK A01 T10051036  RH  079%=      5-min Rain = 0
KPD2 151205Z 29005KT M01/M04 A3023 RMK A01 T10051036  RH  079%=      5-min Rain = 0
KPD2 151206Z 31004KT M01/M04 A3023 RMK A01 T10061036  RH  080%=      5-min Rain = 0
KPD2 151207Z 31005KT M01/M04 A3023 RMK A01 T10071037  RH  080%=      5-min Rain = 0
KPD2 151208Z 31004KT M01/M04 A3023 RMK A01 T10071036  RH  080%=      5-min Rain = 0
KPD2 151209Z 32004KT M01/M04 A3023 RMK A01 T10071037  RH  080%=      5-min Rain = 0
KPD2 151210Z 32005KT M01/M04 A3023 RMK A01 T10071036  RH  080%=      5-min Rain = 0
KPD2 151211Z 31004KT M01/M04 A3023 RMK A01 T10061036  RH  080%=      5-min Rain = 0
KPD2 151212Z 30004KT M01/M04 A3023 RMK A01 T10061036  RH  080%=      5-min Rain = 0
KPD2 151213Z 32004KT M01/M04 A3023 RMK A01 T10071037  RH  080%=      5-min Rain = 0
KPD2 151214Z 32003KT M01/M04 A3023 RMK A01 T10071037  RH  081%=      5-min Rain = 0
KPD2 151215Z 32004KT M01/M04 A3023 RMK A01 T10081037  RH  081%=      5-min Rain = 0
KPD2 151216Z 32004KT M01/M04 A3023 RMK A01 T10081037  RH  081%=      5-min Rain = 0
KPD2 151217Z 30004KT M01/M04 A3023 RMK A01 T10081037  RH  081%=      5-min Rain = 0
KPD2 151218Z 30004KT M01/M04 A3023 RMK A01 T10081036  RH  081%=      5-min Rain = 0
KPD2 151219Z 33003KT M01/M04 A3023 RMK A01 T10081037  RH  081%=      5-min Rain = 0
KPD2 151220Z 32003KT M01/M04 A3023 RMK A01 T10081036  RH  081%=      5-min Rain = 0
KPD2 151221Z 32003KT M01/M04 A3023 RMK A01 T10091037  RH  081%=      5-min Rain = 0
KPD2 151222Z 34003KT M01/M04 A3023 RMK A01 T10081036  RH  082%=      5-min Rain = 0
KPD2 151223Z 34003KT M01/M04 A3023 RMK A01 T10091036  RH  082%=      5-min Rain = 0
KPD2 151224Z 33003KT M01/M04 A3023 RMK A01 T10091036  RH  082%=      5-min Rain = 0
KPD2 151225Z 34004KT M01/M04 A3023 RMK A01 T10091036  RH  082%=      5-min Rain = 0
KPD2 151226Z 34004KT M01/M04 A3023 RMK A01 T10081036  RH  082%=      5-min Rain = 0
KPD2 151227Z 34004KT M01/M04 A3023 RMK A01 T10081036  RH  081%=      5-min Rain = 0
KPD2 151228Z 32003KT M01/M04 A3023 RMK A01 T10081036  RH  081%=      5-min Rain = 0
KPD2 151229Z 32004KT M01/M04 A3023 RMK A01 T10081036  RH  081%=      5-min Rain = 0
KPD2 151230Z 33004KT M01/M04 A3023 RMK A01 T10081037  RH  081%=      5-min Rain = 0
KPD2 151231Z 32004KT M01/M04 A3023 RMK A01 T10081036  RH  081%=      5-min Rain = 0
KPD2 151232Z 33004KT M01/M04 A3023 RMK A01 T10081036  RH  082%=      5-min Rain = 0
KPD2 151233Z 33004KT M01/M04 A3023 RMK A01 T10081036  RH  082%=      5-min Rain = 0
KPD2 151234Z 30004KT M01/M04 A3023 RMK A01 T10081035  RH  081%=      5-min Rain = 0
KPD2 151235Z 30004KT M01/M04 A3023 RMK A01 T10081036  RH  081%=      5-min Rain = 0
KPD2 151236Z 33004KT M01/M04 A3023 RMK A01 T10081036  RH  081%=      5-min Rain = 0
KPD2 151237Z 33004KT M01/M04 A3023 RMK A01 T10081036  RH  081%=      5-min Rain = 0
KPD2 151238Z 32004KT M01/M04 A3023 RMK A01 T10081037  RH  081%=      5-min Rain = 0
KPD2 151239Z 35003KT M01/M04 A3023 RMK A01 T10071036  RH  081%=      5-min Rain = 0
KPD2 151240Z 35003KT M01/M04 A3023 RMK A01 T10071036  RH  081%=      5-min Rain = 0
KPD2 151241Z 32003KT M01/M04 A3023 RMK A01 T10071036  RH  081%=      5-min Rain = 0
KPD2 151242Z 34003KT M01/M04 A3023 RMK A01 T10061036  RH  080%=      5-min Rain = 0
KPD2 151243Z 00004KT M01/M04 A3023 RMK A01 T10051036  RH  080%=      5-min Rain = 0
KPD2 151244Z 35004KT M01/M04 A3023 RMK A01 T10051036  RH  080%=      5-min Rain = 0
KPD2 151245Z 34004KT M01/M04 A3023 RMK A01 T10051036  RH  080%=      5-min Rain = 0
KPD2 151246Z 35004KT M00/M04 A3023 RMK A01 T10041036  RH  079%=      5-min Rain = 0
KPD2 151247Z 34004KT M00/M04 A3023 RMK A01 T10031036  RH  079%=      5-min Rain = 0
KPD2 151248Z 36005KT M00/M04 A3023 RMK A01 T10021036  RH  078%=      5-min Rain = 0
KPD2 151249Z 35003KT M00/M04 A3023 RMK A01 T10021036  RH  078%=      5-min Rain = 0
KPD2 151250Z 33003KT M01/M04 A3023 RMK A01 T10051038  RH  078%=      5-min Rain = 0
KPD2 151251Z 36003KT M01/M04 A3023 RMK A01 T10051037  RH  079%=      5-min Rain = 0
KPD2 151252Z 34003KT M00/M04 A3023 RMK A01 T10041037  RH  079%=      5-min Rain = 0
KPD2 151253Z 33003KT M01/M04 A3024 RMK A01 T10051037  RH  079%=      5-min Rain = 0
KPD2 151254Z 32003KT M01/M04 A3024 RMK A01 T10051037  RH  079%=      5-min Rain = 0
KPD2 151255Z 30002KT M01/M04 A3024 RMK A01 T10051037  RH  079%=      5-min Rain = 0
KPD2 151256Z 30005KT M01/M04 A3024 RMK A01 T10051037  RH  079%=      5-min Rain = 0
KPD2 151257Z 35003KT M01/M04 A3024 RMK A01 T10051037  RH  079%=      5-min Rain = 0
KPD2 151258Z 35003KT M01/M04 A3024 RMK A01 T10051037  RH  079%=      5-min Rain = 0
KPD2 151259Z 33003KT M01/M04 A3024 RMK A01 T10061038  RH  079%=      5-min Rain = 0
KPD2 151300Z 35002KT M01/M04 A3024 RMK A01 T10071038  RH  080%=      5-min Rain = 0
KPD2 151301Z 31002KT M01/M04 A3024 RMK A01 T10081038  RH  080%=      5-min Rain = 0
KPD2 151302Z 32003KT M01/M04 A3024 RMK A01 T10081038  RH  080%=      5-min Rain = 0
KPD2 151303Z 33002KT M01/M04 A3024 RMK A01 T10081038  RH  080%=      5-min Rain = 0
KPD2 151304Z 34003KT M01/M04 A3024 RMK A01 T10081038  RH  081%=      5-min Rain = 0
KPD2 151305Z 32003KT M01/M04 A3024 RMK A01 T10091038  RH  081%=      5-min Rain = 0
KPD2 151306Z 34004KT M01/M04 A3024 RMK A01 T10091038  RH  081%=      5-min Rain = 0
KPD2 151307Z 34003KT M01/M04 A3024 RMK A01 T10091038  RH  081%=      5-min Rain = 0
KPD2 151308Z 33003KT M01/M04 A3024 RMK A01 T10091038  RH  081%=      5-min Rain = 0
KPD2 151309Z 33003KT M01/M04 A3024 RMK A01 T10101038  RH  082%=      5-min Rain = 0
KPD2 151310Z 32004KT M01/M04 A3024 RMK A01 T10101037  RH  082%=      5-min Rain = 0
KPD2 151311Z 32003KT M01/M04 A3024 RMK A01 T10101037  RH  082%=      5-min Rain = 0
KPD2 151312Z 33004KT M01/M04 A3024 RMK A01 T10101037  RH  082%=      5-min Rain = 0
KPD2 151313Z 33003KT M01/M04 A3024 RMK A01 T10101037  RH  082%=      5-min Rain = 0
KPD2 151314Z 33003KT M01/M04 A3024 RMK A01 T10101037  RH  082%=      5-min Rain = 0
KPD2 151315Z 32003KT M01/M04 A3024 RMK A01 T10101037  RH  082%=      5-min Rain = 0
KPD2 151316Z 31003KT M01/M04 A3024 RMK A01 T10101037  RH  082%=      5-min Rain = 0
KPD2 151317Z 30004KT M01/M04 A3024 RMK A01 T10101037  RH  082%=      5-min Rain = 0
KPD2 151318Z 29003KT M01/M04 A3024 RMK A01 T10091037  RH  081%=      5-min Rain = 0
KPD2 151319Z 29004KT M01/M04 A3024 RMK A01 T10081037  RH  081%=      5-min Rain = 0
KPD2 151320Z 32003KT M01/M04 A3024 RMK A01 T10091037  RH  081%=      5-min Rain = 0
KPD2 151321Z 32003KT M01/M04 A3024 RMK A01 T10091038  RH  081%=      5-min Rain = 0
KPD2 151322Z 31003KT M01/M04 A3024 RMK A01 T10101037  RH  081%=      5-min Rain = 0
KPD2 151323Z 32003KT M01/M04 A3024 RMK A01 T10101038  RH  082%=      5-min Rain = 0
KPD2 151324Z 32003KT M01/M04 A3025 RMK A01 T10101037  RH  082%=      5-min Rain = 0
KPD2 151325Z 32003KT M01/M04 A3025 RMK A01 T10111038  RH  082%=      5-min Rain = 0
KPD2 151326Z 30004KT M01/M04 A3025 RMK A01 T10111038  RH  082%=      5-min Rain = 0
KPD2 151327Z 31003KT M01/M04 A3025 RMK A01 T10111038  RH  082%=      5-min Rain = 0
KPD2 151328Z 31003KT M01/M04 A3025 RMK A01 T10111038  RH  082%=      5-min Rain = 0
KPD2 151329Z 28004KT M01/M04 A3025 RMK A01 T10111038  RH  082%=      5-min Rain = 0
KPD2 151330Z 30004KT M01/M04 A3025 RMK A01 T10111038  RH  082%=      5-min Rain = 0
KPD2 151331Z 31003KT M01/M04 A3025 RMK A01 T10111038  RH  082%=      5-min Rain = 0
KPD2 151332Z 32003KT M01/M04 A3025 RMK A01 T10121039  RH  082%=      5-min Rain = 0
KPD2 151333Z 32003KT M01/M04 A3025 RMK A01 T10121038  RH  082%=      5-min Rain = 0
KPD2 151334Z 31003KT M01/M04 A3025 RMK A01 T10131039  RH  083%=      5-min Rain = 0
KPD2 151335Z 33003KT M01/M04 A3025 RMK A01 T10131038  RH  083%=      5-min Rain = 0
KPD2 151336Z 33003KT M01/M04 A3025 RMK A01 T10131038  RH  083%=      5-min Rain = 0
KPD2 151337Z 33003KT M01/M04 A3025 RMK A01 T10131038  RH  083%=      5-min Rain = 0
KPD2 151338Z 33003KT M01/M04 A3025 RMK A01 T10131038  RH  083%=      5-min Rain = 0
KPD2 151339Z 33003KT M01/M04 A3025 RMK A01 T10131038  RH  083%=      5-min Rain = 0
KPD2 151340Z 35003KT M01/M04 A3025 RMK A01 T10121037  RH  083%=      5-min Rain = 0
KPD2 151341Z 34004KT M01/M04 A3025 RMK A01 T10111037  RH  083%=      5-min Rain = 0
KPD2 151342Z 33004KT M01/M04 A3025 RMK A01 T10111037  RH  083%=      5-min Rain = 0
KPD2 151343Z 32004KT M01/M04 A3025 RMK A01 T10111037  RH  082%=      5-min Rain = 0
KPD2 151344Z 31004KT M01/M04 A3025 RMK A01 T10111037  RH  082%=      5-min Rain = 0
KPD2 151345Z 32004KT M01/M04 A3025 RMK A01 T10111037  RH  082%=      5-min Rain = 0
KPD2 151346Z 33003KT M01/M04 A3025 RMK A01 T10111038  RH  082%=      5-min Rain = 0
KPD2 151347Z 34003KT M01/M04 A3025 RMK A01 T10111038  RH  082%=      5-min Rain = 0
KPD2 151348Z 33003KT M01/M04 A3025 RMK A01 T10111038  RH  082%=      5-min Rain = 0
KPD2 151349Z 34004KT M01/M04 A3025 RMK A01 T10111037  RH  082%=      5-min Rain = 0
KPD2 151350Z 33003KT M01/M04 A3025 RMK A01 T10111037  RH  082%=      5-min Rain = 0
KPD2 151351Z 33004KT M01/M04 A3025 RMK A01 T10111037  RH  083%=      5-min Rain = 0
KPD2 151352Z 33004KT M01/M04 A3026 RMK A01 T10111037  RH  083%=      5-min Rain = 0
KPD2 151353Z 34003KT M01/M04 A3026 RMK A01 T10111037  RH  083%=      5-min Rain = 0
KPD2 151354Z 33004KT M01/M04 A3026 RMK A01 T10121037  RH  083%=      5-min Rain = 0
KPD2 151355Z 33004KT M01/M04 A3026 RMK A01 T10111037  RH  083%=      5-min Rain = 0
KPD2 151356Z 33004KT M01/M04 A3026 RMK A01 T10111037  RH  083%=      5-min Rain = 0
KPD2 151357Z 33004KT M01/M04 A3026 RMK A01 T10111037  RH  083%=      5-min Rain = 0
KPD2 151358Z 33003KT M01/M04 A3026 RMK A01 T10111037  RH  082%=      5-min Rain = 0
KPD2 151359Z 34003KT M01/M04 A3026 RMK A01 T10101037  RH  082%=      5-min Rain = 0
KPD2 151400Z 33003KT M01/M04 A3026 RMK A01 T10101037  RH  082%=      5-min Rain = 0
KPD2 151401Z 33003KT M01/M04 A3026 RMK A01 T10101036  RH  082%=      5-min Rain = 0
KPD2 151402Z 34004KT M01/M04 A3026 RMK A01 T10091036  RH  082%=      5-min Rain = 0
KPD2 151403Z 33004KT M01/M04 A3026 RMK A01 T10091036  RH  081%=      5-min Rain = 0
KPD2 151404Z 33004KT M01/M04 A3026 RMK A01 T10081037  RH  081%=      5-min Rain = 0
KPD2 151405Z 33004KT M01/M04 A3026 RMK A01 T10081036  RH  081%=      5-min Rain = 0
KPD2 151406Z 33004KT M01/M04 A3026 RMK A01 T10081036  RH  081%=      5-min Rain = 0
KPD2 151407Z 33004KT M01/M04 A3026 RMK A01 T10071036  RH  081%=      5-min Rain = 0
KPD2 151408Z 34004KT M01/M04 A3026 RMK A01 T10071037  RH  081%=      5-min Rain = 0
KPD2 151409Z 33004KT M01/M04 A3026 RMK A01 T10081037  RH  081%=      5-min Rain = 0
KPD2 151410Z 33004KT M01/M04 A3026 RMK A01 T10081037  RH  081%=      5-min Rain = 0
KPD2 151411Z 33004KT M01/M04 A3026 RMK A01 T10071036  RH  081%=      5-min Rain = 0
KPD2 151412Z 33004KT M01/M04 A3026 RMK A01 T10061036  RH  081%=      5-min Rain = 0
KPD2 151413Z 33004KT M01/M04 A3026 RMK A01 T10051036  RH  080%=      5-min Rain = 0
KPD2 151414Z 32004KT M01/M04 A3026 RMK A01 T10051036  RH  079%=      5-min Rain = 0
KPD2 151415Z 32004KT M00/M04 A3026 RMK A01 T10041036  RH  079%=      5-min Rain = 0
KPD2 151416Z 33004KT M00/M04 A3026 RMK A01 T10031036  RH  078%=      5-min Rain = 0
KPD2 151417Z 33004KT M00/M04 A3026 RMK A01 T10031036  RH  078%=      5-min Rain = 0
KPD2 151418Z 33004KT M00/M04 A3027 RMK A01 T10021036  RH  078%=      5-min Rain = 0
KPD2 151419Z 33004KT M00/M04 A3027 RMK A01 T10021036  RH  078%=      5-min Rain = 0
KPD2 151420Z 34004KT M00/M04 A3027 RMK A01 T10021036  RH  078%=      5-min Rain = 0
KPD2 151421Z 33004KT M00/M04 A3027 RMK A01 T10011035  RH  078%=      5-min Rain = 0
KPD2 151422Z 32003KT M00/M04 A3027 RMK A01 T10021035  RH  078%=      5-min Rain = 0
KPD2 151423Z 32004KT M00/M04 A3027 RMK A01 T10011036  RH  078%=      5-min Rain = 0
KPD2 151424Z 32004KT M00/M04 A3027 RMK A01 T10011035  RH  078%=      5-min Rain = 0
KPD2 151425Z 33004KT 00/04 A3027 RMK A01 T00-00-35  RH  078%=      5-min Rain = 0
KPD2 151426Z 33004KT 00/04 A3027 RMK A01 T00000-35  RH  078%=      5-min Rain = 0
KPD2 151427Z 34004KT 00/03 A3027 RMK A01 T00000-34  RH  078%=      5-min Rain = 0
KPD2 151428Z 35003KT 00/M03 A3027 RMK A01 T00011033  RH  078%=      5-min Rain = 0
KPD2 151429Z 33004KT 00/M03 A3027 RMK A01 T00011034  RH  078%=      5-min Rain = 0
KPD2 151430Z 33004KT 00/M03 A3027 RMK A01 T00011034  RH  077%=      5-min Rain = 0
KPD2 151431Z 33003KT 00/M03 A3027 RMK A01 T00031034  RH  076%=      5-min Rain = 0
KPD2 151432Z 34004KT 00/M03 A3027 RMK A01 T00031033  RH  077%=      5-min Rain = 0
KPD2 151433Z 34004KT 00/M03 A3027 RMK A01 T00041032  RH  077%=      5-min Rain = 0
KPD2 151434Z 36004KT 00/M03 A3027 RMK A01 T00041032  RH  077%=      5-min Rain = 0
KPD2 151435Z 35004KT 01/M03 A3027 RMK A01 T00051032  RH  076%=      5-min Rain = 0
KPD2 151436Z 35003KT 01/M03 A3027 RMK A01 T00061033  RH  075%=      5-min Rain = 0
KPD2 151437Z 35004KT 01/M03 A3027 RMK A01 T00061033  RH  075%=      5-min Rain = 0
KPD2 151438Z 35004KT 01/M03 A3027 RMK A01 T00061032  RH  075%=      5-min Rain = 0
KPD2 151439Z 35003KT 01/M03 A3027 RMK A01 T00071031  RH  076%=      5-min Rain = 0
KPD2 151440Z 01004KT 01/M03 A3027 RMK A01 T00071032  RH  075%=      5-min Rain = 0
KPD2 151441Z 36003KT 01/M03 A3027 RMK A01 T00071030  RH  076%=      5-min Rain = 0
KPD2 151442Z 01004KT 01/M03 A3027 RMK A01 T00071029  RH  077%=      5-min Rain = 0
KPD2 151443Z 35004KT 01/M03 A3027 RMK A01 T00081028  RH  077%=      5-min Rain = 0
KPD2 151444Z 36003KT 01/M03 A3028 RMK A01 T00081030  RH  076%=      5-min Rain = 0
KPD2 151445Z 36004KT 01/M03 A3028 RMK A01 T00081029  RH  076%=      5-min Rain = 0
KPD2 151446Z 35003KT 01/M03 A3028 RMK A01 T00091030  RH  076%=      5-min Rain = 0
KPD2 151447Z 34003KT 01/M03 A3028 RMK A01 T00091029  RH  076%=      5-min Rain = 0
KPD2 151448Z 34003KT 01/M03 A3028 RMK A01 T00091029  RH  075%=      5-min Rain = 0
KPD2 151449Z 34004KT 01/M03 A3028 RMK A01 T00101030  RH  075%=      5-min Rain = 0
KPD2 151450Z 35003KT 01/M03 A3028 RMK A01 T00101030  RH  075%=      5-min Rain = 0
KPD2 151451Z 34003KT 01/M03 A3028 RMK A01 T00101029  RH  075%=      5-min Rain = 0
KPD2 151452Z 33004KT 01/M03 A3028 RMK A01 T00111029  RH  075%=      5-min Rain = 0
KPD2 151453Z 31004KT 01/M03 A3028 RMK A01 T00121028  RH  075%=      5-min Rain = 0
KPD2 151454Z 32004KT 01/M03 A3028 RMK A01 T00131027  RH  075%=      5-min Rain = 0
KPD2 151455Z 32004KT 01/M03 A3028 RMK A01 T00141027  RH  075%=      5-min Rain = 0
KPD2 151456Z 31003KT 01/M03 A3028 RMK A01 T00141026  RH  074%=      5-min Rain = 0
KPD2 151457Z 32003KT 02/M03 A3028 RMK A01 T00151027  RH  074%=      5-min Rain = 0
KPD2 151458Z 30003KT 02/M03 A3028 RMK A01 T00161027  RH  074%=      5-min Rain = 0
KPD2 151459Z 31003KT 02/M03 A3028 RMK A01 T00161027  RH  073%=      5-min Rain = 0
KPD2 151500Z 32004KT 02/M03 A3028 RMK A01 T00171027  RH  073%=      5-min Rain = 0
KPD2 151501Z 32004KT 02/M03 A3028 RMK A01 T00171027  RH  072%=      5-min Rain = 0
KPD2 151502Z 32003KT 02/M03 A3028 RMK A01 T00181026  RH  073%=      5-min Rain = 0
KPD2 151503Z 31004KT 02/M03 A3027 RMK A01 T00181025  RH  073%=      5-min Rain = 0
KPD2 151504Z 31004KT 02/M03 A3027 RMK A01 T00181027  RH  072%=      5-min Rain = 0
KPD2 151505Z 30005KT 02/M03 A3027 RMK A01 T00191029  RH  071%=      5-min Rain = 0
KPD2 151506Z 30004KT 02/M03 A3027 RMK A01 T00191030  RH  070%=      5-min Rain = 0
KPD2 151507Z 30004KT 02/M03 A3027 RMK A01 T00201031  RH  069%=      5-min Rain = 0
KPD2 151508Z 30003KT 02/M03 A3027 RMK A01 T00201029  RH  070%=      5-min Rain = 0
KPD2 151509Z 31003KT 02/M03 A3027 RMK A01 T00211028  RH  070%=      5-min Rain = 0
KPD2 151510Z 30004KT 02/M03 A3027 RMK A01 T00221027  RH  070%=      5-min Rain = 0
KPD2 151511Z 30005KT 02/M03 A3028 RMK A01 T00221027  RH  070%=      5-min Rain = 0
KPD2 151512Z 32004KT 02/M03 A3028 RMK A01 T00231028  RH  069%=      5-min Rain = 0
KPD2 151513Z 31002KT 02/M03 A3028 RMK A01 T00231027  RH  070%=      5-min Rain = 0
KPD2 151514Z 29002KT 02/M03 A3028 RMK A01 T00241026  RH  070%=      5-min Rain = 0
KPD2 151515Z 31003KT 03/M02 A3028 RMK A01 T00251024  RH  070%=      5-min Rain = 0
KPD2 151516Z 29004KT 03/M02 A3028 RMK A01 T00261021  RH  071%=      5-min Rain = 0
KPD2 151517Z 30005KT 03/M03 A3028 RMK A01 T00271025  RH  069%=      5-min Rain = 0
KPD2 151518Z 30005KT 03/M03 A3028 RMK A01 T00271028  RH  067%=      5-min Rain = 0
KPD2 151519Z 31004KT 03/M03 A3028 RMK A01 T00271029  RH  067%=      5-min Rain = 0
KPD2 151520Z 31004KT 03/M03 A3028 RMK A01 T00271030  RH  066%=      5-min Rain = 0
KPD2 151521Z 30004KT 03/M03 A3028 RMK A01 T00271029  RH  066%=      5-min Rain = 0
KPD2 151522Z 30003KT 03/M03 A3028 RMK A01 T00271027  RH  067%=      5-min Rain = 0
KPD2 151523Z 30003KT 03/M02 A3028 RMK A01 T00281023  RH  069%=      5-min Rain = 0
KPD2 151524Z 29004KT 03/M02 A3028 RMK A01 T00291020  RH  070%=      5-min Rain = 0
KPD2 151525Z 30004KT 03/M02 A3028 RMK A01 T00301024  RH  068%=      5-min Rain = 0
KPD2 151526Z 29004KT 03/M02 A3028 RMK A01 T00301021  RH  069%=      5-min Rain = 0
KPD2 151527Z 30004KT 03/M02 A3028 RMK A01 T00311023  RH  068%=      5-min Rain = 0
KPD2 151528Z 28004KT 03/M03 A3028 RMK A01 T00311026  RH  066%=      5-min Rain = 0
KPD2 151529Z 30004KT 03/M03 A3028 RMK A01 T00311027  RH  066%=      5-min Rain = 0
KPD2 151530Z 29004KT 03/M03 A3028 RMK A01 T00311029  RH  065%=      5-min Rain = 0
KPD2 151531Z 30004KT 03/M03 A3028 RMK A01 T00311031  RH  064%=      5-min Rain = 0
KPD2 151532Z 29005KT 03/M03 A3028 RMK A01 T00321028  RH  065%=      5-min Rain = 0
KPD2 151533Z 30004KT 03/M03 A3028 RMK A01 T00321028  RH  065%=      5-min Rain = 0
KPD2 151534Z 29004KT 03/M03 A3028 RMK A01 T00321028  RH  065%=      5-min Rain = 0
KPD2 151535Z 29005KT 03/M03 A3028 RMK A01 T00331029  RH  064%=      5-min Rain = 0
KPD2 151536Z 28004KT 03/M03 A3028 RMK A01 T00331030  RH  063%=      5-min Rain = 0
KPD2 151537Z 30003KT 03/M03 A3028 RMK A01 T00341031  RH  063%=      5-min Rain = 0
KPD2 151538Z 29002KT 03/M03 A3028 RMK A01 T00341026  RH  065%=      5-min Rain = 0
KPD2 151539Z 30005KT 04/M02 A3028 RMK A01 T00351024  RH  065%=      5-min Rain = 0
KPD2 151540Z 29004KT 04/M02 A3028 RMK A01 T00361023  RH  065%=      5-min Rain = 0
KPD2 151541Z 30003KT 04/M02 A3028 RMK A01 T00371023  RH  065%=      5-min Rain = 0
KPD2 151542Z 30005KT 04/M02 A3028 RMK A01 T00381023  RH  065%=      5-min Rain = 0
KPD2 151543Z 30005KT 04/M03 A3028 RMK A01 T00381025  RH  064%=      5-min Rain = 0
KPD2 151544Z 30005KT 04/M02 A3028 RMK A01 T00381022  RH  065%=      5-min Rain = 0
KPD2 151545Z 29005KT 04/M03 A3028 RMK A01 T00381026  RH  063%=      5-min Rain = 0
KPD2 151546Z 28004KT 04/M03 A3028 RMK A01 T00381025  RH  063%=      5-min Rain = 0
KPD2 151547Z 29003KT 04/M03 A3028 RMK A01 T00391026  RH  063%=      5-min Rain = 0
KPD2 151548Z 31003KT 04/M02 A3028 RMK A01 T00401023  RH  064%=      5-min Rain = 0
KPD2 151549Z 30004KT 04/M02 A3028 RMK A01 T00411022  RH  063%=      5-min Rain = 0
KPD2 151550Z 30003KT 04/M02 A3028 RMK A01 T00411023  RH  063%=      5-min Rain = 0
KPD2 151551Z 30002KT 04/M02 A3028 RMK A01 T00431017  RH  065%=      5-min Rain = 0
KPD2 151552Z 31004KT 04/M02 A3028 RMK A01 T00441016  RH  065%=      5-min Rain = 0
KPD2 151553Z 29002KT 05/M02 A3028 RMK A01 T00451018  RH  064%=      5-min Rain = 0
KPD2 151554Z 32004KT 05/M02 A3028 RMK A01 T00451016  RH  064%=      5-min Rain = 0
KPD2 151555Z 30004KT 05/M02 A3028 RMK A01 T00461016  RH  064%=      5-min Rain = 0
KPD2 151556Z 32004KT 05/M02 A3028 RMK A01 T00461022  RH  061%=      5-min Rain = 0
KPD2 151557Z 31004KT 05/M02 A3028 RMK A01 T00461023  RH  061%=      5-min Rain = 0
KPD2 151558Z 29004KT 05/M02 A3028 RMK A01 T00451023  RH  061%=      5-min Rain = 0
KPD2 151559Z 31004KT 05/M02 A3028 RMK A01 T00451021  RH  062%=      5-min Rain = 0
KPD2 151600Z 30003KT 05/M02 A3028 RMK A01 T00471021  RH  061%=      5-min Rain = 0
KPD2 151601Z 30004KT 05/M02 A3028 RMK A01 T00471022  RH  061%=      5-min Rain = 0
KPD2 151602Z 30004KT 05/M02 A3028 RMK A01 T00471023  RH  060%=      5-min Rain = 0
KPD2 151603Z 30004KT 05/M02 A3028 RMK A01 T00481021  RH  061%=      5-min Rain = 0
KPD2 151604Z 30005KT 05/M02 A3028 RMK A01 T00481019  RH  062%=      5-min Rain = 0
KPD2 151605Z 29004KT 05/M02 A3028 RMK A01 T00491022  RH  060%=      5-min Rain = 0
KPD2 151606Z 30004KT 05/M02 A3028 RMK A01 T00491022  RH  060%=      5-min Rain = 0
KPD2 151607Z 28004KT 05/M02 A3028 RMK A01 T00491021  RH  060%=      5-min Rain = 0
KPD2 151608Z 27004KT 05/M02 A3028 RMK A01 T00501021  RH  060%=      5-min Rain = 0
KPD2 151609Z 29004KT 05/M02 A3028 RMK A01 T00491023  RH  059%=      5-min Rain = 0
KPD2 151610Z 30005KT 05/M02 A3028 RMK A01 T00501022  RH  060%=      5-min Rain = 0
KPD2 151611Z 29004KT 05/M02 A3028 RMK A01 T00511018  RH  061%=      5-min Rain = 0
KPD2 151612Z 29004KT 05/M02 A3028 RMK A01 T00521020  RH  060%=      5-min Rain = 0
KPD2 151613Z 29006KT 05/M02 A3028 RMK A01 T00521020  RH  060%=      5-min Rain = 0
KPD2 151614Z 28003KT 05/M02 A3028 RMK A01 T00531023  RH  058%=      5-min Rain = 0
KPD2 151615Z 29004KT 05/M02 A3028 RMK A01 T00531022  RH  058%=      5-min Rain = 0
KPD2 151616Z 28005KT 05/M02 A3028 RMK A01 T00531022  RH  058%=      5-min Rain = 0
KPD2 151617Z 29005KT 05/M02 A3028 RMK A01 T00531019  RH  060%=      5-min Rain = 0
KPD2 151618Z 29004KT 05/M02 A3028 RMK A01 T00531021  RH  059%=      5-min Rain = 0
KPD2 151619Z 28004KT 05/M02 A3028 RMK A01 T00531022  RH  059%=      5-min Rain = 0
KPD2 151620Z 29005KT 05/M02 A3028 RMK A01 T00541020  RH  059%=      5-min Rain = 0
KPD2 151621Z 29005KT 06/M02 A3028 RMK A01 T00551021  RH  058%=      5-min Rain = 0
KPD2 151622Z 28004KT 06/M02 A3028 RMK A01 T00551023  RH  057%=      5-min Rain = 0
KPD2 151623Z 28004KT 06/M02 A3028 RMK A01 T00551022  RH  057%=      5-min Rain = 0
KPD2 151624Z 28005KT 06/M02 A3028 RMK A01 T00561019  RH  058%=      5-min Rain = 0
KPD2 151625Z 28005KT 06/M02 A3028 RMK A01 T00571022  RH  057%=      5-min Rain = 0
KPD2 151626Z 29005KT 06/M02 A3028 RMK A01 T00581017  RH  059%=      5-min Rain = 0
KPD2 151627Z 28005KT 06/M02 A3028 RMK A01 T00581018  RH  058%=      5-min Rain = 0
KPD2 151628Z 29005KT 06/M02 A3028 RMK A01 T00581020  RH  057%=      5-min Rain = 0
KPD2 151629Z 29004KT 06/M02 A3028 RMK A01 T00581021  RH  057%=      5-min Rain = 0
KPD2 151630Z 28005KT 06/M02 A3028 RMK A01 T00581017  RH  058%=      5-min Rain = 0
KPD2 151631Z 28006KT 06/M02 A3027 RMK A01 T00591020  RH  057%=      5-min Rain = 0
KPD2 151632Z 27003KT 06/M02 A3027 RMK A01 T00581021  RH  057%=      5-min Rain = 0
KPD2 151633Z 26005KT 06/M02 A3027 RMK A01 T00581017  RH  059%=      5-min Rain = 0
KPD2 151634Z 27006KT 06/M01 A3027 RMK A01 T00601013  RH  059%=      5-min Rain = 0
KPD2 151635Z 27005KT 06/M02 A3027 RMK A01 T00611017  RH  057%=      5-min Rain = 0
KPD2 151636Z 27005KT 06/M02 A3027 RMK A01 T00611016  RH  058%=      5-min Rain = 0
KPD2 151637Z 26006KT 06/M01 A3027 RMK A01 T00611013  RH  059%=      5-min Rain = 0
KPD2 151638Z 25005KT 06/M02 A3027 RMK A01 T00621015  RH  058%=      5-min Rain = 0
KPD2 151639Z 27004KT 06/M01 A3027 RMK A01 T00631010  RH  060%=      5-min Rain = 0
KPD2 151640Z 27004KT 06/M01 A3027 RMK A01 T00641014  RH  058%=      5-min Rain = 0
KPD2 151641Z 26005KT 06/M01 A3027 RMK A01 T00641013  RH  058%=      5-min Rain = 0
KPD2 151642Z 26004KT 06/M01 A3027 RMK A01 T00641013  RH  058%=      5-min Rain = 0
KPD2 151643Z 25003KT 07/M02 A3027 RMK A01 T00651015  RH  057%=      5-min Rain = 0
KPD2 151644Z 28005KT 07/M02 A3027 RMK A01 T00651015  RH  057%=      5-min Rain = 0
KPD2 151645Z 27006KT 07/M01 A3027 RMK A01 T00661012  RH  057%=      5-min Rain = 0
KPD2 151646Z 29004KT 07/M01 A3027 RMK A01 T00671012  RH  057%=      5-min Rain = 0
KPD2 151647Z 28003KT 07/M01 A3027 RMK A01 T00681012  RH  057%=      5-min Rain = 0
KPD2 151648Z 31005KT 07/M01 A3027 RMK A01 T00701005  RH  059%=      5-min Rain = 0
KPD2 151649Z 30005KT 07/M01 A3027 RMK A01 T00721013  RH  055%=      5-min Rain = 0
KPD2 151650Z 29002KT 07/M02 A3027 RMK A01 T00711016  RH  054%=      5-min Rain = 0
KPD2 151651Z 27002G7KT 07/M01 A3027 RMK A01 T00711011  RH  056%=      5-min Rain = 0
KPD2 151652Z 29005KT 07/M02 A3027 RMK A01 T00711015  RH  054%=      5-min Rain = 0
KPD2 151653Z 30005KT 07/M02 A3027 RMK A01 T00701015  RH  055%=      5-min Rain = 0
KPD2 151654Z 30005KT 07/M01 A3027 RMK A01 T00711013  RH  055%=      5-min Rain = 0
KPD2 151655Z 30006KT 07/M02 A3027 RMK A01 T00711017  RH  053%=      5-min Rain = 0
KPD2 151656Z 28005KT 07/M02 A3027 RMK A01 T00701018  RH  054%=      5-min Rain = 0
KPD2 151657Z 27004KT 07/M01 A3027 RMK A01 T00711012  RH  056%=      5-min Rain = 0
KPD2 151658Z 28004KT 07/M01 A3027 RMK A01 T00731009  RH  056%=      5-min Rain = 0
KPD2 151659Z 28004KT 07/M01 A3027 RMK A01 T00741011  RH  055%=      5-min Rain = 0
KPD2 151700Z 30005KT 08/M01 A3027 RMK A01 T00751014  RH  053%=      5-min Rain = 0
KPD2 151701Z 31004KT 08/M02 A3027 RMK A01 T00751015  RH  053%=      5-min Rain = 0
KPD2 151702Z 26003KT 08/M01 A3027 RMK A01 T00751007  RH  056%=      5-min Rain = 0
KPD2 151703Z 27004KT 08/M01 A3027 RMK A01 T00771007  RH  055%=      5-min Rain = 0
KPD2 151704Z 28004KT 08/M01 A3026 RMK A01 T00771014  RH  053%=      5-min Rain = 0
KPD2 151705Z 27005KT 08/M02 A3026 RMK A01 T00771015  RH  052%=      5-min Rain = 0
KPD2 151706Z 29005KT 08/M02 A3027 RMK A01 T00771018  RH  051%=      5-min Rain = 0
KPD2 151707Z 30005KT 08/M02 A3026 RMK A01 T00771018  RH  051%=      5-min Rain = 0
KPD2 151708Z 27004KT 08/M01 A3026 RMK A01 T00771012  RH  054%=      5-min Rain = 0
KPD2 151709Z 25003KT 08/M01 A3026 RMK A01 T00771011  RH  053%=      5-min Rain = 0
KPD2 151710Z 27004KT 08/M01 A3026 RMK A01 T00791010  RH  054%=      5-min Rain = 0
KPD2 151711Z 30006KT 08/M01 A3026 RMK A01 T00801014  RH  052%=      5-min Rain = 0
KPD2 151712Z 29005KT 08/M01 A3026 RMK A01 T00801011  RH  052%=      5-min Rain = 0
KPD2 151713Z 30006KT 08/M01 A3027 RMK A01 T00811009  RH  053%=      5-min Rain = 0
KPD2 151714Z 32005KT 08/M01 A3027 RMK A01 T00811010  RH  053%=      5-min Rain = 0
KPD2 151715Z 30003KT 08/M01 A3027 RMK A01 T00821011  RH  052%=      5-min Rain = 0
KPD2 151716Z 27003KT 08/M02 A3027 RMK A01 T00811015  RH  051%=      5-min Rain = 0
KPD2 151717Z 26003KT 08/M01 A3026 RMK A01 T00811010  RH  053%=      5-min Rain = 0
KPD2 151718Z 27004KT 08/M01 A3026 RMK A01 T00811007  RH  054%=      5-min Rain = 0
KPD2 151719Z 26005KT 08/M01 A3026 RMK A01 T00821009  RH  053%=      5-min Rain = 0
KPD2 151720Z 26005KT 08/M01 A3026 RMK A01 T00821009  RH  053%=      5-min Rain = 0
KPD2 151721Z 26004KT 08/M01 A3026 RMK A01 T00811012  RH  052%=      5-min Rain = 0
KPD2 151722Z 32003KT 08/M01 A3026 RMK A01 T00811011  RH  052%=      5-min Rain = 0
KPD2 151723Z 26004KT 08/M01 A3026 RMK A01 T00831009  RH  052%=      5-min Rain = 0
KPD2 151724Z 26003KT 08/M01 A3026 RMK A01 T00841008  RH  053%=      5-min Rain = 0
KPD2 151725Z 25005KT 09/M01 A3026 RMK A01 T00851006  RH  053%=      5-min Rain = 0
KPD2 151726Z 24005KT 09/M01 A3026 RMK A01 T00851012  RH  050%=      5-min Rain = 0
KPD2 151727Z 23005KT 09/M01 A3026 RMK A01 T00851009  RH  051%=      5-min Rain = 0
KPD2 151728Z 24004KT 09/M01 A3026 RMK A01 T00861009  RH  051%=      5-min Rain = 0
KPD2 151729Z 24006KT 09/M01 A3026 RMK A01 T00881008  RH  051%=      5-min Rain = 0
KPD2 151730Z 24007KT 09/M01 A3026 RMK A01 T00881011  RH  050%=      5-min Rain = 0
KPD2 151731Z 23005KT 09/M01 A3026 RMK A01 T00881009  RH  050%=      5-min Rain = 0
KPD2 151732Z 26006KT 09/M01 A3026 RMK A01 T00891008  RH  050%=      5-min Rain = 0
KPD2 151733Z 24005KT 09/M01 A3026 RMK A01 T00891008  RH  051%=      5-min Rain = 0
KPD2 151734Z 21002KT 09/M01 A3026 RMK A01 T00891008  RH  050%=      5-min Rain = 0
KPD2 151735Z 23003KT 09/M01 A3026 RMK A01 T00881008  RH  051%=      5-min Rain = 0
KPD2 151736Z 26005KT 09/M01 A3026 RMK A01 T00901005  RH  051%=      5-min Rain = 0
KPD2 151737Z 27004KT 09/M01 A3026 RMK A01 T00911014  RH  048%=      5-min Rain = 0
KPD2 151738Z 24001KT 09/M01 A3026 RMK A01 T00901011  RH  049%=      5-min Rain = 0
KPD2 151739Z 23004KT 09/M01 A3025 RMK A01 T00911010  RH  049%=      5-min Rain = 0
KPD2 151740Z 25005KT 09/M01 A3025 RMK A01 T00931005  RH  050%=      5-min Rain = 0
KPD2 151741Z 26005KT 09/M01 A3025 RMK A01 T00931014  RH  047%=      5-min Rain = 0
KPD2 151742Z 24005KT 09/M02 A3025 RMK A01 T00921015  RH  047%=      5-min Rain = 0
KPD2 151743Z 22005KT 09/M01 A3025 RMK A01 T00911010  RH  049%=      5-min Rain = 0
KPD2 151744Z 22005KT 09/M01 A3025 RMK A01 T00921011  RH  049%=      5-min Rain = 0
KPD2 151745Z 22004KT 09/M01 A3025 RMK A01 T00921011  RH  049%=      5-min Rain = 0
KPD2 151746Z 22004KT 09/M01 A3025 RMK A01 T00931009  RH  049%=      5-min Rain = 0
KPD2 151747Z 22004KT 10/M00 A3025 RMK A01 T00951004  RH  050%=      5-min Rain = 0
KPD2 151748Z 25005KT 10/M01 A3025 RMK A01 T00971006  RH  049%=      5-min Rain = 0
KPD2 151749Z 22002KT 10/M01 A3025 RMK A01 T00971010  RH  047%=      5-min Rain = 0
KPD2 151750Z 21002KT 10/M01 A3025 RMK A01 T00971006  RH  049%=      5-min Rain = 0
KPD2 151751Z 26005KT 10/M01 A3025 RMK A01 T00981008  RH  048%=      5-min Rain = 0
KPD2 151752Z 26004KT 10/M01 A3025 RMK A01 T00981012  RH  046%=      5-min Rain = 0
KPD2 151753Z 26003KT 10/M01 A3025 RMK A01 T00961012  RH  047%=      5-min Rain = 0
KPD2 151754Z 25003KT 10/M01 A3025 RMK A01 T00961012  RH  047%=      5-min Rain = 0
KPD2 151755Z 27002KT 10/M01 A3025 RMK A01 T00971008  RH  048%=      5-min Rain = 0
KPD2 151756Z 28002KT 10/M01 A3025 RMK A01 T00981007  RH  048%=      5-min Rain = 0
KPD2 151757Z 28002KT 10/M01 A3025 RMK A01 T01001008  RH  047%=      5-min Rain = 0
KPD2 151758Z 29005KT 10/M01 A3025 RMK A01 T01001014  RH  045%=      5-min Rain = 0
KPD2 151759Z 30004KT 10/M01 A3025 RMK A01 T00991010  RH  047%=      5-min Rain = 0
KPD2 151800Z 25003KT 10/M01 A3025 RMK A01 T00991010  RH  046%=      5-min Rain = 0
KPD2 151801Z 22003KT 10/M02 A3025 RMK A01 T00991015  RH  045%=      5-min Rain = 0
KPD2 151802Z 25002KT 10/M02 A3025 RMK A01 T00991015  RH  045%=      5-min Rain = 0
KPD2 151803Z 25003KT 10/M01 A3025 RMK A01 T00991014  RH  046%=      5-min Rain = 0
KPD2 151804Z 25002KT 10/M01 A3025 RMK A01 T00991010  RH  046%=      5-min Rain = 0
KPD2 151805Z 27001KT 10/M02 A3025 RMK A01 T01001015  RH  045%=      5-min Rain = 0
KPD2 151806Z 33003KT 10/M01 A3025 RMK A01 T01001014  RH  045%=      5-min Rain = 0
KPD2 151807Z 33003KT 10/M01 A3025 RMK A01 T01011010  RH  046%=      5-min Rain = 0
KPD2 151808Z 33002KT 10/M01 A3025 RMK A01 T01021011  RH  045%=      5-min Rain = 0
KPD2 151809Z 29001KT 10/M01 A3025 RMK A01 T01021011  RH  045%=      5-min Rain = 0
KPD2 151810Z 02002KT 10/M01 A3024 RMK A01 T01031006  RH  047%=      5-min Rain = 0
KPD2 151811Z 32002KT 11/M01 A3024 RMK A01 T01051010  RH  045%=      5-min Rain = 0
KPD2 151812Z 26004KT 10/M01 A3024 RMK A01 T01041011  RH  045%=      5-min Rain = 0
KPD2 151813Z 23004KT 10/M01 A3024 RMK A01 T01041011  RH  045%=      5-min Rain = 0
KPD2 151814Z 23001KT 11/M01 A3024 RMK A01 T01051013  RH  044%=      5-min Rain = 0
KPD2 151815Z 25003KT 11/M01 A3024 RMK A01 T01051014  RH  044%=      5-min Rain = 0
KPD2 151816Z 25004KT 11/M02 A3024 RMK A01 T01051016  RH  043%=      5-min Rain = 0
KPD2 151817Z 22003KT 10/M02 A3024 RMK A01 T01031016  RH  043%=      5-min Rain = 0
KPD2 151818Z 22003KT 10/M01 A3024 RMK A01 T01041009  RH  045%=      5-min Rain = 0
KPD2 151819Z 21005KT 11/M01 A3024 RMK A01 T01061009  RH  045%=      5-min Rain = 0
KPD2 151820Z 22007KT 11/M01 A3024 RMK A01 T01071013  RH  043%=      5-min Rain = 0
KPD2 151821Z 25004KT 11/M01 A3024 RMK A01 T01061012  RH  044%=      5-min Rain = 0
KPD2 151822Z 19002KT 11/M02 A3024 RMK A01 T01061016  RH  043%=      5-min Rain = 0
KPD2 151823Z 18003KT 11/M02 A3024 RMK A01 T01061015  RH  043%=      5-min Rain = 0
KPD2 151824Z 21002KT 11/M02 A3024 RMK A01 T01051015  RH  043%=      5-min Rain = 0
KPD2 151825Z 20001KT 11/M02 A3024 RMK A01 T01061015  RH  043%=      5-min Rain = 0
KPD2 151826Z 22001KT 11/M01 A3023 RMK A01 T01071012  RH  044%=      5-min Rain = 0
KPD2 151827Z 23001KT 11/M01 A3023 RMK A01 T01081012  RH  043%=      5-min Rain = 0
KPD2 151828Z 25001KT 11/M02 A3023 RMK A01 T01101016  RH  042%=      5-min Rain = 0
KPD2 151829Z 23002KT 11/M01 A3023 RMK A01 T01101014  RH  042%=      5-min Rain = 0
KPD2 151830Z 20004KT 11/M01 A3023 RMK A01 T01111012  RH  042%=      5-min Rain = 0
KPD2 151831Z 23005KT 11/M01 A3023 RMK A01 T01121011  RH  042%=      5-min Rain = 0
KPD2 151832Z 27003KT 11/M01 A3023 RMK A01 T01131014  RH  041%=      5-min Rain = 0
KPD2 151833Z 23001KT 11/M02 A3023 RMK A01 T01131017  RH  040%=      5-min Rain = 0
KPD2 151834Z 21001KT 11/M01 A3023 RMK A01 T01141013  RH  041%=      5-min Rain = 0
KPD2 151835Z 26002KT 12/M01 A3023 RMK A01 T01161013  RH  041%=      5-min Rain = 0
KPD2 151836Z 28003KT 12/M02 A3023 RMK A01 T01171015  RH  040%=      5-min Rain = 0
KPD2 151837Z 28003KT 12/M01 A3023 RMK A01 T01191010  RH  041%=      5-min Rain = 0
KPD2 151838Z 29002KT 12/M01 A3023 RMK A01 T01201014  RH  039%=      5-min Rain = 0
KPD2 151839Z 25003KT 12/M02 A3023 RMK A01 T01201016  RH  039%=      5-min Rain = 0
KPD2 151840Z 24000KT 12/M02 A3022 RMK A01 T01191023  RH  037%=      5-min Rain = 0
KPD2 151841Z 30001KT 12/M02 A3022 RMK A01 T01191022  RH  037%=      5-min Rain = 0
KPD2 151842Z 20002KT 12/M02 A3022 RMK A01 T01171024  RH  037%=      5-min Rain = 0
KPD2 151843Z 19003KT 12/M03 A3022 RMK A01 T01161028  RH  037%=      5-min Rain = 0
KPD2 151844Z 18002KT 11/M03 A3022 RMK A01 T01141025  RH  038%=      5-min Rain = 0
KPD2 151845Z 17002KT 11/M02 A3022 RMK A01 T01131023  RH  038%=      5-min Rain = 0
KPD2 151846Z 17001KT 11/M02 A3022 RMK A01 T01141023  RH  038%=      5-min Rain = 0
KPD2 151847Z 10000KT 12/M02 A3022 RMK A01 T01151022  RH  038%=      5-min Rain = 0
KPD2 151848Z 09002KT 12/M02 A3022 RMK A01 T01171021  RH  038%=      5-min Rain = 0
KPD2 151849Z 08002KT 12/M02 A3022 RMK A01 T01181020  RH  038%=      5-min Rain = 0
KPD2 151850Z 08001KT 12/M01 A3022 RMK A01 T01191013  RH  040%=      5-min Rain = 0
KPD2 151851Z 22002KT 12/M02 A3022 RMK A01 T01201017  RH  038%=      5-min Rain = 0
KPD2 151852Z 26002KT 12/M02 A3022 RMK A01 T01211022  RH  037%=      5-min Rain = 0
KPD2 151853Z 28006KT 12/M03 A3022 RMK A01 T01211026  RH  036%=      5-min Rain = 0
KPD2 151854Z 29007KT 12/M02 A3021 RMK A01 T01211021  RH  037%=      5-min Rain = 0
KPD2 151855Z 31004KT 12/M02 A3021 RMK A01 T01211021  RH  037%=      5-min Rain = 0
KPD2 151856Z 33005KT 12/M02 A3021 RMK A01 T01211016  RH  039%=      5-min Rain = 0
KPD2 151857Z 32003KT 12/M02 A3021 RMK A01 T01221023  RH  036%=      5-min Rain = 0
KPD2 151858Z 33004KT 12/M02 A3021 RMK A01 T01211021  RH  037%=      5-min Rain = 0
KPD2 151859Z 25003KT 12/M02 A3021 RMK A01 T01221019  RH  037%=      5-min Rain = 0
KPD2 151900Z 26003KT 12/M02 A3021 RMK A01 T01241023  RH  036%=      5-min Rain = 0
KPD2 151901Z 24004KT 12/M02 A3021 RMK A01 T01231018  RH  037%=      5-min Rain = 0
KPD2 151902Z 24004KT 12/M02 A3021 RMK A01 T01241021  RH  036%=      5-min Rain = 0
KPD2 151903Z 25004KT 13/M01 A3021 RMK A01 T01261014  RH  038%=      5-min Rain = 0
KPD2 151904Z 24006KT 13/M01 A3021 RMK A01 T01291011  RH  038%=      5-min Rain = 0
KPD2 151905Z 23004KT 13/M02 A3021 RMK A01 T01301017  RH  036%=      5-min Rain = 0
KPD2 151906Z 24005KT 13/M02 A3021 RMK A01 T01301016  RH  036%=      5-min Rain = 0
KPD2 151907Z 25005KT 13/M02 A3021 RMK A01 T01291020  RH  035%=      5-min Rain = 0
KPD2 151908Z 27004KT 13/M02 A3021 RMK A01 T01281019  RH  036%=      5-min Rain = 0
KPD2 151909Z 27008KT 13/M02 A3021 RMK A01 T01281015  RH  037%=      5-min Rain = 0
KPD2 151910Z 30006KT 13/M02 A3021 RMK A01 T01281023  RH  035%=      5-min Rain = 0
KPD2 151911Z 29007KT 13/M03 A302 RMK A01 T01261025  RH  035%=      5-min Rain = 0
KPD2 151912Z 30003KT 12/M03 A302 RMK A01 T01241026  RH  035%=      5-min Rain = 0
KPD2 151913Z 27004KT 12/M02 A302 RMK A01 T01231023  RH  036%=      5-min Rain = 0
KPD2 151914Z 29004KT 13/M02 A302 RMK A01 T01251016  RH  037%=      5-min Rain = 0
KPD2 151915Z 30004KT 13/M02 A302 RMK A01 T01271022  RH  036%=      5-min Rain = 0
KPD2 151916Z 29005KT 13/M02 A302 RMK A01 T01271023  RH  035%=      5-min Rain = 0
KPD2 151917Z 26007KT 13/M02 A302 RMK A01 T01271020  RH  036%=      5-min Rain = 0
KPD2 151918Z 27007KT 13/M02 A302 RMK A01 T01281022  RH  035%=      5-min Rain = 0
KPD2 151919Z 29005KT 13/M03 A302 RMK A01 T01251029  RH  034%=      5-min Rain = 0
KPD2 151920Z 27005KT 12/M02 A302 RMK A01 T01241023  RH  036%=      5-min Rain = 0
KPD2 151921Z 26005KT 12/M03 A302 RMK A01 T01241025  RH  035%=      5-min Rain = 0
KPD2 151922Z 26004KT 13/M03 A302 RMK A01 T01251026  RH  035%=      5-min Rain = 0
KPD2 151923Z 26004KT 13/M03 A302 RMK A01 T01251026  RH  035%=      5-min Rain = 0
KPD2 151924Z 25008KT 13/M02 A302 RMK A01 T01261024  RH  035%=      5-min Rain = 0
KPD2 151925Z 26005KT 13/M02 A302 RMK A01 T01261023  RH  035%=      5-min Rain = 0
KPD2 151926Z 24006KT 13/M02 A302 RMK A01 T01271020  RH  036%=      5-min Rain = 0
KPD2 151927Z 25006KT 13/M02 A302 RMK A01 T01281022  RH  035%=      5-min Rain = 0
KPD2 151928Z 24005KT 13/M02 A302 RMK A01 T01281022  RH  035%=      5-min Rain = 0
KPD2 151929Z 26005KT 13/M02 A3019 RMK A01 T01281024  RH  035%=      5-min Rain = 0
KPD2 151930Z 28007KT 13/M03 A3019 RMK A01 T01271025  RH  035%=      5-min Rain = 0
KPD2 151931Z 28005KT 13/M03 A3019 RMK A01 T01261025  RH  035%=      5-min Rain = 0
KPD2 151932Z 27008KT 13/M02 A3019 RMK A01 T01271019  RH  036%=      5-min Rain = 0
KPD2 151933Z 29006KT 13/M03 A3019 RMK A01 T01281025  RH  034%=      5-min Rain = 0
KPD2 151934Z 32003KT 13/M02 A3019 RMK A01 T01281020  RH  036%=      5-min Rain = 0
KPD2 151935Z 31005KT 13/M02 A3019 RMK A01 T01301018  RH  036%=      5-min Rain = 0
KPD2 151936Z 33005KT 13/M01 A3019 RMK A01 T01331013  RH  036%=      5-min Rain = 0
KPD2 151937Z 30006KT 14/M01 A3019 RMK A01 T01361013  RH  036%=      5-min Rain = 0
KPD2 151938Z 30007KT 14/M02 A3019 RMK A01 T01361018  RH  034%=      5-min Rain = 0
KPD2 151939Z 30009KT 14/M02 A3019 RMK A01 T01361015  RH  035%=      5-min Rain = 0
KPD2 151940Z 32006KT 13/M02 A3019 RMK A01 T01341022  RH  034%=      5-min Rain = 0
KPD2 151941Z 25005KT 13/M02 A3019 RMK A01 T01321022  RH  034%=      5-min Rain = 0
KPD2 151942Z 23004KT 13/M02 A3019 RMK A01 T01321021  RH  035%=      5-min Rain = 0
KPD2 151943Z 23004KT 13/M02 A3019 RMK A01 T01331019  RH  035%=      5-min Rain = 0
KPD2 151944Z 23005KT 14/M02 A3019 RMK A01 T01351018  RH  035%=      5-min Rain = 0
KPD2 151945Z 25003KT 14/M02 A3019 RMK A01 T01361020  RH  034%=      5-min Rain = 0
KPD2 151946Z 23002KT 13/M03 A3019 RMK A01 T01341027  RH  033%=      5-min Rain = 0
KPD2 151947Z 20001KT 13/M03 A3019 RMK A01 T01331027  RH  033%=      5-min Rain = 0
KPD2 151948Z 20002KT 13/M03 A3018 RMK A01 T01331028  RH  033%=      5-min Rain = 0
KPD2 151949Z 29001KT 13/M03 A3018 RMK A01 T01331027  RH  033%=      5-min Rain = 0
KPD2 151950Z 30003KT 13/M02 A3018 RMK A01 T01341019  RH  035%=      5-min Rain = 0
KPD2 151951Z 26004KT 14/M02 A3018 RMK A01 T01351024  RH  033%=      5-min Rain = 0
KPD2 151952Z 29003KT 13/M03 A3018 RMK A01 T01341025  RH  033%=      5-min Rain = 0
KPD2 151953Z 26007KT 13/M02 A3018 RMK A01 T01341021  RH  034%=      5-min Rain = 0
KPD2 151954Z 27007KT 14/M02 A3018 RMK A01 T01351022  RH  034%=      5-min Rain = 0
KPD2 151955Z 31006KT 14/M02 A3018 RMK A01 T01361021  RH  034%=      5-min Rain = 0
KPD2 151956Z 31006KT 14/M03 A3018 RMK A01 T01351025  RH  033%=      5-min Rain = 0
KPD2 151957Z 30007KT 13/M03 A3018 RMK A01 T01331030  RH  032%=      5-min Rain = 0
KPD2 151958Z 31008KT 13/M03 A3018 RMK A01 T01331029  RH  032%=      5-min Rain = 0
KPD2 151959Z 29008KT 13/M03 A3018 RMK A01 T01321027  RH  033%=      5-min Rain = 0
KPD2 152000Z 28005KT 13/M03 A3018 RMK A01 T01301031  RH  032%=      5-min Rain = 0
KPD2 152001Z 30004KT 13/M03 A3018 RMK A01 T01291031  RH  033%=      5-min Rain = 0
KPD2 152002Z 33005KT 13/M02 A3018 RMK A01 T01321018  RH  036%=      5-min Rain = 0
KPD2 152003Z 35005KT 14/M02 A3018 RMK A01 T01351022  RH  034%=      5-min Rain = 0
KPD2 152004Z 31005KT 14/M03 A3018 RMK A01 T01351026  RH  033%=      5-min Rain = 0
KPD2 152005Z 33006KT 13/M02 A3018 RMK A01 T01341024  RH  033%=      5-min Rain = 0
KPD2 152006Z 33006KT 14/M03 A3018 RMK A01 T01351027  RH  033%=      5-min Rain = 0
KPD2 152007Z 25005KT 13/M03 A3018 RMK A01 T01321029  RH  032%=      5-min Rain = 0
KPD2 152008Z 29007KT 13/M02 A3017 RMK A01 T01321024  RH  034%=      5-min Rain = 0
KPD2 152009Z 30008KT 13/M02 A3017 RMK A01 T01341024  RH  033%=      5-min Rain = 0
KPD2 152010Z 30007KT 13/M02 A3017 RMK A01 T01341024  RH  033%=      5-min Rain = 0
KPD2 152011Z 31005KT 13/M03 A3018 RMK A01 T01341026  RH  033%=      5-min Rain = 0
KPD2 152012Z 34005KT 13/M03 A3017 RMK A01 T01331028  RH  033%=      5-min Rain = 0
KPD2 152013Z 33004KT 13/M02 A3017 RMK A01 T01331024  RH  034%=      5-min Rain = 0
KPD2 152014Z 35002KT 13/M02 A3017 RMK A01 T01341022  RH  034%=      5-min Rain = 0
KPD2 152015Z 03002KT 14/M03 A3017 RMK A01 T01361027  RH  032%=      5-min Rain = 0
KPD2 152016Z 03004KT 14/M03 A3017 RMK A01 T01361029  RH  032%=      5-min Rain = 0
KPD2 152017Z 09001KT 14/M03 A3017 RMK A01 T01351029  RH  032%=      5-min Rain = 0
KPD2 152018Z 11001KT 13/M03 A3017 RMK A01 T01341028  RH  032%=      5-min Rain = 0
KPD2 152019Z 09003KT 14/M02 A3017 RMK A01 T01351021  RH  034%=      5-min Rain = 0
KPD2 152020Z 12001KT 14/M03 A3017 RMK A01 T01361029  RH  032%=      5-min Rain = 0
KPD2 152021Z 13002KT 14/M03 A3017 RMK A01 T01371030  RH  031%=      5-min Rain = 0
KPD2 152022Z 09000KT 14/M03 A3017 RMK A01 T01361027  RH  032%=      5-min Rain = 0
KPD2 152023Z 18000KT 14/M03 A3017 RMK A01 T01371025  RH  032%=      5-min Rain = 0
KPD2 152024Z 14002KT 14/M03 A3017 RMK A01 T01371028  RH  032%=      5-min Rain = 0
KPD2 152025Z 27002KT 14/M02 A3017 RMK A01 T01391024  RH  032%=      5-min Rain = 0
KPD2 152026Z 28002KT 14/M02 A3017 RMK A01 T01401024  RH  032%=      5-min Rain = 0
KPD2 152027Z 26002KT 14/M02 A3016 RMK A01 T01421022  RH  032%=      5-min Rain = 0
KPD2 152028Z 24005KT 14/M02 A3016 RMK A01 T01441016  RH  033%=      5-min Rain = 0
KPD2 152029Z 27007KT 15/M02 A3016 RMK A01 T01451022  RH  032%=      5-min Rain = 0
KPD2 152030Z 28008KT 14/M03 A3016 RMK A01 T01431029  RH  030%=      5-min Rain = 0
KPD2 152031Z 29005KT 14/M03 A3016 RMK A01 T01391034  RH  030%=      5-min Rain = 0
KPD2 152032Z 32004KT 14/M03 A3016 RMK A01 T01371029  RH  032%=      5-min Rain = 0
KPD2 152033Z 33004KT 14/M03 A3016 RMK A01 T01381028  RH  032%=      5-min Rain = 0
KPD2 152034Z 32004KT 14/M03 A3016 RMK A01 T01381033  RH  030%=      5-min Rain = 0
KPD2 152035Z 32003KT 14/M03 A3016 RMK A01 T01371031  RH  031%=      5-min Rain = 0
KPD2 152036Z 30005KT 14/M03 A3016 RMK A01 T01371032  RH  031%=      5-min Rain = 0
KPD2 152037Z 33005KT 14/M03 A3016 RMK A01 T01371033  RH  031%=      5-min Rain = 0
KPD2 152038Z 35003KT 14/M03 A3016 RMK A01 T01371034  RH  031%=      5-min Rain = 0
KPD2 152039Z 33004KT 14/M03 A3016 RMK A01 T01371031  RH  031%=      5-min Rain = 0
KPD2 152040Z 32008KT 14/M03 A3016 RMK A01 T01381028  RH  032%=      5-min Rain = 0
KPD2 152041Z 33007KT 14/M02 A3016 RMK A01 T01401021  RH  033%=      5-min Rain = 0
KPD2 152042Z 31006KT 14/M02 A3016 RMK A01 T01431024  RH  031%=      5-min Rain = 0
KPD2 152043Z 33006KT 14/M03 A3016 RMK A01 T01431026  RH  031%=      5-min Rain = 0
KPD2 152044Z 31006KT 14/M03 A3016 RMK A01 T01421026  RH  031%=      5-min Rain = 0
KPD2 152045Z 32005KT 14/M03 A3016 RMK A01 T01431026  RH  031%=      5-min Rain = 0
KPD2 152046Z 32005KT 14/M03 A3016 RMK A01 T01421032  RH  030%=      5-min Rain = 0
KPD2 152047Z 27007KT 14/M03 A3016 RMK A01 T01391034  RH  030%=      5-min Rain = 0
KPD2 152048Z 26005KT 14/M03 A3016 RMK A01 T01381034  RH  030%=      5-min Rain = 0
KPD2 152049Z 31006KT 14/M03 A3016 RMK A01 T01381028  RH  032%=      5-min Rain = 0
KPD2 152050Z 32005KT 14/M03 A3016 RMK A01 T01401028  RH  031%=      5-min Rain = 0
KPD2 152051Z 32004KT 14/M03 A3016 RMK A01 T01401032  RH  030%=      5-min Rain = 0
KPD2 152052Z 28002KT 14/M03 A3016 RMK A01 T01391031  RH  031%=      5-min Rain = 0
KPD2 152053Z 06000KT 14/M03 A3015 RMK A01 T01401028  RH  031%=      5-min Rain = 0
KPD2 152054Z 20001KT 14/M03 A3015 RMK A01 T01421030  RH  030%=      5-min Rain = 0
KPD2 152055Z 25002KT 14/M03 A3015 RMK A01 T01431033  RH  030%=      5-min Rain = 0
KPD2 152056Z 33001KT 14/M03 A3015 RMK A01 T01431031  RH  030%=      5-min Rain = 0
KPD2 152057Z 33003KT 14/M03 A3015 RMK A01 T01441030  RH  030%=      5-min Rain = 0
KPD2 152058Z 03002KT 14/M03 A3015 RMK A01 T01431031  RH  030%=      5-min Rain = 0
KPD2 152059Z 09001KT 14/M03 A3015 RMK A01 T01431030  RH  030%=      5-min Rain = 0
KPD2 152100Z 08002KT 14/M03 A3015 RMK A01 T01431030  RH  030%=      5-min Rain = 0
KPD2 152101Z 06003KT 14/M03 A3015 RMK A01 T01431026  RH  031%=      5-min Rain = 0
KPD2 152102Z 06001KT 14/M03 A3015 RMK A01 T01431025  RH  031%=      5-min Rain = 0
KPD2 152103Z 24002KT 14/M03 A3015 RMK A01 T01441029  RH  030%=      5-min Rain = 0
KPD2 152104Z 26005KT 14/M03 A3015 RMK A01 T01441027  RH  031%=      5-min Rain = 0
KPD2 152105Z 29003KT 15/M03 A3015 RMK A01 T01451031  RH  029%=      5-min Rain = 0
KPD2 152106Z 23002KT 14/M03 A3015 RMK A01 T01431029  RH  030%=      5-min Rain = 0
KPD2 152107Z 21006KT 14/M02 A3015 RMK A01 T01441020  RH  032%=      5-min Rain = 0
KPD2 152108Z 24005KT 15/M02 A3015 RMK A01 T01471022  RH  031%=      5-min Rain = 0
KPD2 152109Z 22003KT 15/M03 A3015 RMK A01 T01471028  RH  030%=      5-min Rain = 0
KPD2 152110Z 25001KT 15/M03 A3015 RMK A01 T01461032  RH  029%=      5-min Rain = 0
KPD2 152111Z 32002KT 14/M03 A3015 RMK A01 T01441030  RH  030%=      5-min Rain = 0
KPD2 152112Z 29005KT 15/M02 A3015 RMK A01 T01451023  RH  031%=      5-min Rain = 0
KPD2 152113Z 30008KT 15/M03 A3015 RMK A01 T01461026  RH  030%=      5-min Rain = 0
KPD2 152114Z 30006KT 15/M03 A3015 RMK A01 T01451026  RH  030%=      5-min Rain = 0
KPD2 152115Z 30005KT 14/M03 A3015 RMK A01 T01431030  RH  030%=      5-min Rain = 0
KPD2 152116Z 34006KT 14/M02 A3015 RMK A01 T01441020  RH  032%=      5-min Rain = 0
KPD2 152117Z 34002KT 15/M03 A3015 RMK A01 T01451025  RH  031%=      5-min Rain = 0
KPD2 152118Z 01002KT 14/M02 A3015 RMK A01 T01441024  RH  031%=      5-min Rain = 0
KPD2 152119Z 31003KT 15/M02 A3015 RMK A01 T01451023  RH  031%=      5-min Rain = 0
KPD2 152120Z 28004KT 15/M02 A3015 RMK A01 T01481022  RH  031%=      5-min Rain = 0
KPD2 152121Z 29003KT 15/M03 A3015 RMK A01 T01471031  RH  029%=      5-min Rain = 0
KPD2 152122Z 34005KT 14/M03 A3015 RMK A01 T01441029  RH  030%=      5-min Rain = 0
KPD2 152123Z 34006KT 14/M03 A3015 RMK A01 T01441025  RH  031%=      5-min Rain = 0
KPD2 152124Z 34005KT 15/M02 A3014 RMK A01 T01451023  RH  031%=      5-min Rain = 0
KPD2 152125Z 32005KT 15/M03 A3014 RMK A01 T01461026  RH  030%=      5-min Rain = 0
KPD2 152126Z 31007KT 15/M03 A3014 RMK A01 T01451030  RH  030%=      5-min Rain = 0
KPD2 152127Z 32003KT 14/M03 A3014 RMK A01 T01431029  RH  030%=      5-min Rain = 0
KPD2 152128Z 29003KT 14/M03 A3014 RMK A01 T01421034  RH  029%=      5-min Rain = 0
KPD2 152129Z 30002KT 14/M03 A3014 RMK A01 T01411029  RH  031%=      5-min Rain = 0
KPD2 152130Z 34004KT 14/M03 A3014 RMK A01 T01431027  RH  031%=      5-min Rain = 0
KPD2 152131Z 34002KT 14/M03 A3014 RMK A01 T01441028  RH  030%=      5-min Rain = 0
KPD2 152132Z 02003KT 15/M02 A3014 RMK A01 T01461021  RH  032%=      5-min Rain = 0
KPD2 152133Z 02002KT 15/M03 A3014 RMK A01 T01471026  RH  030%=      5-min Rain = 0
KPD2 152134Z 29001KT 15/M03 A3014 RMK A01 T01471030  RH  029%=      5-min Rain = 0
KPD2 152135Z 21000KT 15/M03 A3014 RMK A01 T01471032  RH  029%=      5-min Rain = 0
KPD2 152136Z 32001KT 15/M02 A3014 RMK A01 T01481024  RH  030%=      5-min Rain = 0
KPD2 152137Z 17001KT 15/M02 A3014 RMK A01 T01511023  RH  030%=      5-min Rain = 0
KPD2 152138Z 27003KT 15/M03 A3014 RMK A01 T01521027  RH  029%=      5-min Rain = 0
KPD2 152139Z 30004KT 15/M03 A3014 RMK A01 T01521029  RH  029%=      5-min Rain = 0
KPD2 152140Z 30004KT 15/M03 A3014 RMK A01 T01501032  RH  028%=      5-min Rain = 0
KPD2 152141Z 33004KT 15/M03 A3014 RMK A01 T01501029  RH  029%=      5-min Rain = 0
KPD2 152142Z 31004KT 15/M04 A3014 RMK A01 T01491037  RH  027%=      5-min Rain = 0
KPD2 152143Z 34003KT 15/M04 A3014 RMK A01 T01481036  RH  028%=      5-min Rain = 0
KPD2 152144Z 01006KT 15/M03 A3014 RMK A01 T01471029  RH  029%=      5-min Rain = 0
KPD2 152145Z 02004KT 15/M03 A3014 RMK A01 T01471033  RH  029%=      5-min Rain = 0
KPD2 152146Z 33002KT 15/M03 A3014 RMK A01 T01461032  RH  029%=      5-min Rain = 0
KPD2 152147Z 28002KT 15/M04 A3014 RMK A01 T01461035  RH  028%=      5-min Rain = 0
KPD2 152148Z 25003KT 15/M03 A3014 RMK A01 T01461034  RH  029%=      5-min Rain = 0
KPD2 152149Z 24003KT 15/M04 A3014 RMK A01 T01451036  RH  028%=      5-min Rain = 0
KPD2 152150Z 24002KT 15/M03 A3013 RMK A01 T01461029  RH  030%=      5-min Rain = 0
KPD2 152151Z 27004KT 15/M03 A3014 RMK A01 T01481031  RH  029%=      5-min Rain = 0
KPD2 152152Z 31006KT 15/M03 A3014 RMK A01 T01481030  RH  029%=      5-min Rain = 0
KPD2 152153Z 30004KT 15/M03 A3014 RMK A01 T01481028  RH  030%=      5-min Rain = 0
KPD2 152154Z 29005KT 15/M03 A3013 RMK A01 T01491031  RH  029%=      5-min Rain = 0
KPD2 152155Z 28004KT 15/M03 A3013 RMK A01 T01471031  RH  029%=      5-min Rain = 0
KPD2 152156Z 29004KT 15/M03 A3013 RMK A01 T01471030  RH  029%=      5-min Rain = 0
KPD2 152157Z 30003KT 15/M03 A3013 RMK A01 T01461034  RH  029%=      5-min Rain = 0
KPD2 152158Z 32001KT 14/M03 A3013 RMK A01 T01441034  RH  029%=      5-min Rain = 0
KPD2 152159Z 27002KT 15/M03 A3013 RMK A01 T01451028  RH  030%=      5-min Rain = 0
KPD2 152200Z 29003KT 15/M03 A3013 RMK A01 T01471031  RH  029%=      5-min Rain = 0
KPD2 152201Z 30004KT 15/M03 A3013 RMK A01 T01471031  RH  029%=      5-min Rain = 0
KPD2 152202Z 33004KT 15/M03 A3013 RMK A01 T01481027  RH  030%=      5-min Rain = 0
KPD2 152203Z 33003KT 15/M03 A3013 RMK A01 T01481027  RH  030%=      5-min Rain = 0
KPD2 152204Z 32003KT 15/M03 A3013 RMK A01 T01471027  RH  030%=      5-min Rain = 0
KPD2 152205Z 31008KT 15/M03 A3013 RMK A01 T01481027  RH  030%=      5-min Rain = 0
KPD2 152206Z 33008KT 15/M03 A3013 RMK A01 T01481026  RH  030%=      5-min Rain = 0
KPD2 152207Z 32008KT 15/M03 A3013 RMK A01 T01491027  RH  030%=      5-min Rain = 0
KPD2 152208Z 30007KT 15/M03 A3013 RMK A01 T01491032  RH  029%=      5-min Rain = 0
KPD2 152209Z 29005KT 15/M04 A3013 RMK A01 T01471038  RH  028%=      5-min Rain = 0
KPD2 152210Z 29005KT 15/M03 A3013 RMK A01 T01461034  RH  029%=      5-min Rain = 0
KPD2 152211Z 31006KT 15/M03 A3013 RMK A01 T01461034  RH  029%=      5-min Rain = 0
KPD2 152212Z 33006KT 15/M04 A3013 RMK A01 T01451035  RH  029%=      5-min Rain = 0
KPD2 152213Z 36005KT 15/M03 A3012 RMK A01 T01451029  RH  030%=      5-min Rain = 0
KPD2 152214Z 30005KT 15/M03 A3012 RMK A01 T01461025  RH  031%=      5-min Rain = 0
KPD2 152215Z 28006KT 15/M03 A3012 RMK A01 T01461032  RH  029%=      5-min Rain = 0
KPD2 152216Z 27005KT 15/M03 A3012 RMK A01 T01451033  RH  029%=      5-min Rain = 0
KPD2 152217Z 32005KT 14/M03 A3012 RMK A01 T01441028  RH  030%=      5-min Rain = 0
KPD2 152218Z 32007KT 15/M02 A3012 RMK A01 T01461021  RH  031%=      5-min Rain = 0
KPD2 152219Z 33006KT 15/M03 A3012 RMK A01 T01481025  RH  030%=      5-min Rain = 0
KPD2 152220Z 31004KT 15/M03 A3012 RMK A01 T01481029  RH  029%=      5-min Rain = 0
KPD2 152221Z 31005KT 15/M03 A3012 RMK A01 T01461030  RH  029%=      5-min Rain = 0
KPD2 152222Z 30004KT 15/M03 A3012 RMK A01 T01461031  RH  029%=      5-min Rain = 0
KPD2 152223Z 32003KT 15/M03 A3012 RMK A01 T01451027  RH  030%=      5-min Rain = 0
KPD2 152224Z 32001KT 15/M03 A3012 RMK A01 T01461028  RH  030%=      5-min Rain = 0
KPD2 152225Z 31004KT 15/M03 A3012 RMK A01 T01481025  RH  030%=      5-min Rain = 0
KPD2 152226Z 30004KT 15/M03 A3012 RMK A01 T01501025  RH  030%=      5-min Rain = 0
KPD2 152227Z 30005KT 15/M03 A3012 RMK A01 T01491032  RH  029%=      5-min Rain = 0
KPD2 152228Z 32005KT 15/M03 A3012 RMK A01 T01471031  RH  029%=      5-min Rain = 0
KPD2 152229Z 32004KT 15/M03 A3012 RMK A01 T01471027  RH  030%=      5-min Rain = 0
KPD2 152230Z 29002KT 15/M03 A3012 RMK A01 T01471033  RH  029%=      5-min Rain = 0
KPD2 152231Z 29004KT 15/M04 A3011 RMK A01 T01451035  RH  029%=      5-min Rain = 0
KPD2 152232Z 31003KT 14/M03 A3011 RMK A01 T01441034  RH  029%=      5-min Rain = 0
KPD2 152233Z 32003KT 14/M04 A3011 RMK A01 T01441035  RH  029%=      5-min Rain = 0
KPD2 152234Z 32001KT 14/M03 A3011 RMK A01 T01441031  RH  030%=      5-min Rain = 0
KPD2 152235Z 27001KT 15/M03 A3011 RMK A01 T01461027  RH  030%=      5-min Rain = 0
KPD2 152236Z 19001KT 15/M03 A3011 RMK A01 T01481029  RH  029%=      5-min Rain = 0
KPD2 152237Z 19001KT 15/M03 A3011 RMK A01 T01491030  RH  029%=      5-min Rain = 0
KPD2 152238Z 19000KT 15/M03 A3011 RMK A01 T01491029  RH  029%=      5-min Rain = 0
KPD2 152239Z 20002KT 15/M03 A3011 RMK A01 T01501028  RH  029%=      5-min Rain = 0
KPD2 152240Z 29003KT 15/M03 A3011 RMK A01 T01501028  RH  029%=      5-min Rain = 0
KPD2 152241Z 32005KT 15/M03 A3011 RMK A01 T01501027  RH  029%=      5-min Rain = 0
KPD2 152242Z 33005KT 15/M03 A3011 RMK A01 T01501033  RH  028%=      5-min Rain = 0
KPD2 152243Z 32004KT 15/M03 A3011 RMK A01 T01481032  RH  029%=      5-min Rain = 0
KPD2 152244Z 33003KT 15/M04 A3011 RMK A01 T01471037  RH  028%=      5-min Rain = 0
KPD2 152245Z 31005KT 15/M03 A3011 RMK A01 T01471028  RH  030%=      5-min Rain = 0
KPD2 152246Z 30003KT 15/M03 A3011 RMK A01 T01481032  RH  029%=      5-min Rain = 0
KPD2 152247Z 27000KT 15/M03 A3011 RMK A01 T01481033  RH  029%=      5-min Rain = 0
KPD2 152248Z 32002KT 15/M03 A3011 RMK A01 T01481032  RH  029%=      5-min Rain = 0
KPD2 152249Z 33003KT 15/M03 A3011 RMK A01 T01481032  RH  029%=      5-min Rain = 0
KPD2 152250Z 22001KT 15/M03 A3011 RMK A01 T01501031  RH  029%=      5-min Rain = 0
KPD2 152251Z 35003KT 15/M03 A3011 RMK A01 T01501032  RH  028%=      5-min Rain = 0
KPD2 152252Z 35004KT 15/M03 A301 RMK A01 T01511031  RH  028%=      5-min Rain = 0
KPD2 152253Z 33006KT 15/M03 A301 RMK A01 T01501030  RH  029%=      5-min Rain = 0
KPD2 152254Z 28003KT 15/M03 A301 RMK A01 T01491025  RH  030%=      5-min Rain = 0
KPD2 152255Z 26003KT 15/M03 A301 RMK A01 T01491032  RH  029%=      5-min Rain = 0
KPD2 152256Z 25002KT 15/M03 A301 RMK A01 T01481030  RH  029%=      5-min Rain = 0
KPD2 152257Z 25002KT 15/M03 A301 RMK A01 T01481031  RH  029%=      5-min Rain = 0
KPD2 152258Z 23002KT 15/M03 A301 RMK A01 T01491029  RH  029%=      5-min Rain = 0
KPD2 152259Z 22003KT 15/M03 A301 RMK A01 T01491031  RH  029%=      5-min Rain = 0
KPD2 152300Z 23001KT 15/M03 A301 RMK A01 T01491028  RH  029%=      5-min Rain = 0
KPD2 152301Z 21000KT 15/M03 A301 RMK A01 T01491031  RH  029%=      5-min Rain = 0
KPD2 152302Z 26001KT 15/M03 A301 RMK A01 T01491033  RH  028%=      5-min Rain = 0
KPD2 152303Z 21001KT 15/M03 A301 RMK A01 T01501029  RH  029%=      5-min Rain = 0
KPD2 152304Z 23002KT 15/M03 A301 RMK A01 T01501032  RH  028%=      5-min Rain = 0
KPD2 152305Z 24004KT 15/M03 A301 RMK A01 T01501031  RH  029%=      5-min Rain = 0
KPD2 152306Z 26004KT 15/M03 A301 RMK A01 T01491029  RH  029%=      5-min Rain = 0
KPD2 152307Z 28002KT 15/M03 A301 RMK A01 T01491031  RH  029%=      5-min Rain = 0
KPD2 152308Z 28001KT 15/M04 A301 RMK A01 T01481035  RH  028%=      5-min Rain = 0
KPD2 152309Z 34001KT 15/M04 A301 RMK A01 T01481035  RH  028%=      5-min Rain = 0
KPD2 152310Z 29001KT 15/M04 A301 RMK A01 T01481037  RH  028%=      5-min Rain = 0
KPD2 152311Z 27001KT 15/M03 A301 RMK A01 T01481034  RH  028%=      5-min Rain = 0
KPD2 152312Z 33002KT 15/M03 A301 RMK A01 T01491034  RH  028%=      5-min Rain = 0
KPD2 152313Z 35002KT 15/M04 A301 RMK A01 T01481035  RH  028%=      5-min Rain = 0
KPD2 152314Z 35001KT 15/M03 A301 RMK A01 T01481028  RH  030%=      5-min Rain = 0
KPD2 152315Z 21000KT 15/M03 A301 RMK A01 T01481028  RH  030%=      5-min Rain = 0
KPD2 152316Z 22002KT 15/M03 A301 RMK A01 T01491029  RH  029%=      5-min Rain = 0
KPD2 152317Z 22003KT 15/M03 A301 RMK A01 T01501025  RH  030%=      5-min Rain = 0
KPD2 152318Z 24004KT 15/M03 A301 RMK A01 T01501028  RH  029%=      5-min Rain = 0
KPD2 152319Z 23004KT 15/M03 A301 RMK A01 T01501028  RH  029%=      5-min Rain = 0
KPD2 152320Z 23003KT 15/M03 A301 RMK A01 T01491027  RH  029%=      5-min Rain = 0
KPD2 152321Z 23003KT 15/M03 A301 RMK A01 T01491026  RH  030%=      5-min Rain = 0
KPD2 152322Z 21002KT 15/M03 A301 RMK A01 T01491026  RH  030%=      5-min Rain = 0
KPD2 152323Z 25003KT 15/M02 A301 RMK A01 T01491024  RH  030%=      5-min Rain = 0
KPD2 152324Z 27003KT 15/M03 A301 RMK A01 T01491026  RH  030%=      5-min Rain = 0
KPD2 152325Z 27003KT 15/M03 A301 RMK A01 T01481027  RH  030%=      5-min Rain = 0
KPD2 152326Z 27003KT 15/M03 A301 RMK A01 T01481026  RH  030%=      5-min Rain = 0
KPD2 152327Z 26003KT 15/M03 A301 RMK A01 T01461028  RH  030%=      5-min Rain = 0
KPD2 152328Z 26003KT 15/M03 A301 RMK A01 T01461026  RH  030%=      5-min Rain = 0
KPD2 152329Z 26003KT 15/M03 A301 RMK A01 T01471026  RH  030%=      5-min Rain = 0
KPD2 152330Z 27004KT 15/M02 A301 RMK A01 T01471023  RH  031%=      5-min Rain = 0
KPD2 152331Z 27004KT 15/M03 A301 RMK A01 T01481027  RH  030%=      5-min Rain = 0
KPD2 152332Z 26004KT 15/M03 A301 RMK A01 T01471029  RH  030%=      5-min Rain = 0
KPD2 152333Z 28003KT 15/M03 A301 RMK A01 T01471029  RH  030%=      5-min Rain = 0
KPD2 152334Z 28003KT 15/M03 A301 RMK A01 T01471028  RH  030%=      5-min Rain = 0
KPD2 152335Z 28002KT 15/M03 A301 RMK A01 T01471029  RH  030%=      5-min Rain = 0
KPD2 152336Z 26002KT 15/M03 A301 RMK A01 T01471027  RH  030%=      5-min Rain = 0
KPD2 152337Z 25002KT 15/M02 A301 RMK A01 T01471023  RH  031%=      5-min Rain = 0
KPD2 152338Z 24002KT 15/M03 A301 RMK A01 T01471026  RH  030%=      5-min Rain = 0
KPD2 152339Z 22002KT 15/M03 A301 RMK A01 T01471025  RH  030%=      5-min Rain = 0
KPD2 152340Z 25002KT 15/M02 A301 RMK A01 T01471022  RH  031%=      5-min Rain = 0
KPD2 152341Z 23003KT 15/M03 A301 RMK A01 T01481025  RH  030%=      5-min Rain = 0
KPD2 152342Z 23002KT 15/M03 A301 RMK A01 T01481027  RH  030%=      5-min Rain = 0
KPD2 152343Z 24001KT 15/M02 A301 RMK A01 T01481024  RH  030%=      5-min Rain = 0
KPD2 152344Z 25002KT 15/M03 A301 RMK A01 T01481027  RH  030%=      5-min Rain = 0
KPD2 152345Z 25001KT 15/M03 A301 RMK A01 T01471026  RH  030%=      5-min Rain = 0
KPD2 152346Z 25001KT 15/M02 A301 RMK A01 T01481024  RH  031%=      5-min Rain = 0
KPD2 152347Z 25002KT 15/M02 A301 RMK A01 T01481022  RH  031%=      5-min Rain = 0
KPD2 152348Z 24002KT 15/M03 A301 RMK A01 T01471026  RH  030%=      5-min Rain = 0
KPD2 152349Z 24001KT 15/M03 A3009 RMK A01 T01471026  RH  030%=      5-min Rain = 0
KPD2 152350Z 24000KT 15/M03 A3009 RMK A01 T01481028  RH  030%=      5-min Rain = 0
KPD2 152351Z 23001KT 15/M03 A3009 RMK A01 T01481028  RH  030%=      5-min Rain = 0
KPD2 152352Z 21002KT 15/M02 A3009 RMK A01 T01471020  RH  032%=      5-min Rain = 0
KPD2 152353Z 22001KT 14/M02 A3009 RMK A01 T01431017  RH  033%=      5-min Rain = 0
KPD2 152354Z 22001KT 14/M02 A3009 RMK A01 T01411017  RH  034%=      5-min Rain = 0
KPD2 152355Z 22001KT 14/M02 A3009 RMK A01 T01391016  RH  034%=      5-min Rain = 0
KPD2 152356Z 22000KT 14/M02 A3009 RMK A01 T01371016  RH  035%=      5-min Rain = 0
KPD2 152357Z 22000KT 14/M02 A3009 RMK A01 T01351020  RH  034%=      5-min Rain = 0
KPD2 152358Z 25001KT 13/M02 A3009 RMK A01 T01341021  RH  034%=      5-min Rain = 0
KPD2 152359Z 24001KT 13/M02 A3009 RMK A01 T01321018  RH  035%=      5-min Rain = 0
KPD2 160000Z 20001KT 13/M01 A3009 RMK A01 T01301013  RH  037%=      5-min Rain = 0
KPD2 160001Z 22001KT 13/M01 A3009 RMK A01 T01271012  RH  038%=      5-min Rain = 0
KPD2 160002Z 22001KT 13/M01 A3009 RMK A01 T01261014  RH  038%=      5-min Rain = 0
KPD2 160003Z 21001KT 12/M02 A3009 RMK A01 T01241015  RH  038%=      5-min Rain = 0
KPD2 160004Z 22001KT 12/M02 A3009 RMK A01 T01241015  RH  038%=      5-min Rain = 0
KPD2 160005Z 23001KT 12/M01 A3009 RMK A01 T01231014  RH  039%=      5-min Rain = 0
KPD2 160006Z 25002KT 12/M02 A3009 RMK A01 T01221016  RH  038%=      5-min Rain = 0
KPD2 160007Z 23001KT 12/M02 A3009 RMK A01 T01211018  RH  038%=      5-min Rain = 0
KPD2 160008Z 25002KT 12/M02 A3009 RMK A01 T01211019  RH  038%=      5-min Rain = 0
KPD2 160009Z 25002KT 12/M02 A3009 RMK A01 T01201019  RH  038%=      5-min Rain = 0
KPD2 160010Z 27001KT 12/M02 A3009 RMK A01 T01201020  RH  038%=      5-min Rain = 0
KPD2 160011Z 28001KT 12/M02 A3009 RMK A01 T01191020  RH  038%=      5-min Rain = 0
KPD2 160012Z 27001KT 12/M02 A3009 RMK A01 T01191020  RH  038%=      5-min Rain = 0
KPD2 160013Z 26001KT 12/M02 A3009 RMK A01 T01181019  RH  038%=      5-min Rain = 0
KPD2 160014Z 25000KT 12/M02 A3009 RMK A01 T01171020  RH  038%=      5-min Rain = 0
KPD2 160015Z 33000KT 12/M02 A3009 RMK A01 T01171019  RH  039%=      5-min Rain = 0
KPD2 160016Z 33001KT 12/M02 A3009 RMK A01 T01161020  RH  039%=      5-min Rain = 0
KPD2 160017Z 34001KT 12/M02 A3009 RMK A01 T01151020  RH  039%=      5-min Rain = 0
KPD2 160018Z 34000KT 12/M02 A3009 RMK A01 T01151021  RH  039%=      5-min Rain = 0
KPD2 160019Z 00000KT 12/M02 A3009 RMK A01 T01151020  RH  039%=      5-min Rain = 0
KPD2 160020Z 00000KT 11/M02 A3009 RMK A01 T01141021  RH  039%=      5-min Rain = 0
KPD2 160021Z 00000KT 11/M01 A3009 RMK A01 T01141011  RH  042%=      5-min Rain = 0
KPD2 160022Z 33001KT 11/M01 A3009 RMK A01 T01131006  RH  044%=      5-min Rain = 0
KPD2 160023Z 10000KT 11/M00 A3009 RMK A01 T01111002  RH  046%=      5-min Rain = 0
KPD2 160024Z 13001KT 11/M01 A3009 RMK A01 T01091008  RH  044%=      5-min Rain = 0
KPD2 160025Z 16001KT 11/M00 A3009 RMK A01 T01091004  RH  046%=      5-min Rain = 0
KPD2 160026Z 16001KT 11/M00 A3009 RMK A01 T01081003  RH  046%=      5-min Rain = 0
KPD2 160027Z 16001KT 11/M01 A3009 RMK A01 T01071005  RH  046%=      5-min Rain = 0
KPD2 160028Z 17002KT 11/M01 A3009 RMK A01 T01061006  RH  046%=      5-min Rain = 0
KPD2 160029Z 17002KT 11/M01 A3009 RMK A01 T01061007  RH  045%=      5-min Rain = 0
KPD2 160030Z 17002KT 11/M01 A3009 RMK A01 T01051009  RH  045%=      5-min Rain = 0
KPD2 160031Z 18002KT 11/M01 A3009 RMK A01 T01051010  RH  045%=      5-min Rain = 0
KPD2 160032Z 19003KT 11/M01 A3009 RMK A01 T01051008  RH  045%=      5-min Rain = 0
KPD2 160033Z 20003KT 10/M01 A3009 RMK A01 T01041009  RH  045%=      5-min Rain = 0
KPD2 160034Z 18003KT 10/M01 A3009 RMK A01 T01041010  RH  045%=      5-min Rain = 0
KPD2 160035Z 18002KT 10/M01 A3009 RMK A01 T01041011  RH  045%=      5-min Rain = 0
KPD2 160036Z 17003KT 10/M01 A3009 RMK A01 T01041013  RH  044%=      5-min Rain = 0
KPD2 160037Z 15002KT 10/M01 A3009 RMK A01 T01041014  RH  044%=      5-min Rain = 0
KPD2 160038Z 14002KT 10/M01 A3009 RMK A01 T01041013  RH  044%=      5-min Rain = 0
KPD2 160039Z 14002KT 10/M01 A3009 RMK A01 T01041011  RH  045%=      5-min Rain = 0
KPD2 160040Z 16002KT 10/M01 A3009 RMK A01 T01041011  RH  045%=      5-min Rain = 0
KPD2 160041Z 17002KT 10/M01 A3009 RMK A01 T01041013  RH  044%=      5-min Rain = 0
KPD2 160042Z 16002KT 10/M01 A3009 RMK A01 T01041013  RH  044%=      5-min Rain = 0
KPD2 160043Z 18002KT 10/M01 A3009 RMK A01 T01041013  RH  044%=      5-min Rain = 0
KPD2 160044Z 17002KT 10/M01 A3009 RMK A01 T01041012  RH  044%=      5-min Rain = 0
KPD2 160045Z 18002KT 10/M01 A3009 RMK A01 T01031013  RH  044%=      5-min Rain = 0
KPD2 160046Z 18002KT 10/M01 A3009 RMK A01 T01031014  RH  044%=      5-min Rain = 0
KPD2 160047Z 18002KT 10/M01 A3009 RMK A01 T01041013  RH  044%=      5-min Rain = 0
KPD2 160048Z 18001KT 10/M01 A3009 RMK A01 T01031013  RH  044%=      5-min Rain = 0
KPD2 160049Z 16001KT 10/M01 A3009 RMK A01 T01031010  RH  046%=      5-min Rain = 0
KPD2 160050Z 16001KT 10/M01 A3009 RMK A01 T01021009  RH  046%=      5-min Rain = 0
KPD2 160051Z 16001KT 10/M01 A3009 RMK A01 T01011010  RH  046%=      5-min Rain = 0
KPD2 160052Z 16001KT 10/M01 A3009 RMK A01 T01001011  RH  046%=      5-min Rain = 0
KPD2 160053Z 16000KT 10/M01 A3009 RMK A01 T00991012  RH  046%=      5-min Rain = 0
KPD2 160054Z 00000KT 10/M01 A3009 RMK A01 T00981014  RH  046%=      5-min Rain = 0
KPD2 160055Z 00000KT 10/M01 A3009 RMK A01 T00981014  RH  046%=      5-min Rain = 0
KPD2 160056Z 00000KT 10/M02 A3009 RMK A01 T00971016  RH  045%=      5-min Rain = 0
KPD2 160057Z 00000KT 10/M02 A3009 RMK A01 T00971017  RH  045%=      5-min Rain = 0
KPD2 160058Z 16000KT 10/M02 A3009 RMK A01 T00981017  RH  045%=      5-min Rain = 0
KPD2 160059Z 16000KT 10/M02 A3009 RMK A01 T00981016  RH  045%=      5-min Rain = 0
KPD2 160100Z 00000KT 10/M02 A3009 RMK A01 T00981016  RH  045%=      5-min Rain = 0
KPD2 160101Z 00000KT 10/M02 A3009 RMK A01 T00991016  RH  045%=      5-min Rain = 0
KPD2 160102Z 18001KT 10/M01 A3009 RMK A01 T00981011  RH  047%=      5-min Rain = 0
KPD2 160103Z 18001KT 10/M01 A3009 RMK A01 T00961009  RH  048%=      5-min Rain = 0
KPD2 160104Z 19001KT 10/M01 A3009 RMK A01 T00951009  RH  048%=      5-min Rain = 0
KPD2 160105Z 18001KT 09/M01 A3009 RMK A01 T00941008  RH  049%=      5-min Rain = 0
KPD2 160106Z 18002KT 09/M01 A3009 RMK A01 T00941007  RH  049%=      5-min Rain = 0
KPD2 160107Z 18002KT 09/M00 A3009 RMK A01 T00941003  RH  051%=      5-min Rain = 0
KPD2 160108Z 18001KT 09/00 A3009 RMK A01 T00920000  RH  053%=      5-min Rain = 0
KPD2 160109Z 18001KT 09/M00 A301 RMK A01 T00901003  RH  052%=      5-min Rain = 0
KPD2 160110Z 14002KT 09/M00 A301 RMK A01 T00891002  RH  053%=      5-min Rain = 0
KPD2 160111Z 12002KT 09/M00 A301 RMK A01 T00891001  RH  053%=      5-min Rain = 0
KPD2 160112Z 13002KT 09/00 A301 RMK A01 T00880001  RH  055%=      5-min Rain = 0
KPD2 160113Z 14001KT 09/00 A301 RMK A01 T008700-0  RH  054%=      5-min Rain = 0
KPD2 160114Z 12001KT 09/M01 A301 RMK A01 T00871005  RH  053%=      5-min Rain = 0
KPD2 160115Z 13001KT 09/M01 A301 RMK A01 T00871006  RH  052%=      5-min Rain = 0
KPD2 160116Z 14000KT 09/M01 A301 RMK A01 T00871009  RH  051%=      5-min Rain = 0
KPD2 160117Z 16001KT 09/M01 A301 RMK A01 T00871006  RH  052%=      5-min Rain = 0
KPD2 160118Z 17001KT 09/M00 A301 RMK A01 T00861002  RH  054%=      5-min Rain = 0
KPD2 160119Z 19001KT 08/00 A301 RMK A01 T00840000  RH  056%=      5-min Rain = 0
KPD2 160120Z 20001KT 08/M00 A301 RMK A01 T00821001  RH  056%=      5-min Rain = 0
KPD2 160121Z 20001KT 08/M00 A301 RMK A01 T00791004  RH  056%=      5-min Rain = 0
KPD2 160122Z 20001KT 08/M01 A301 RMK A01 T00781005  RH  056%=      5-min Rain = 0
KPD2 160123Z 19001KT 08/M01 A301 RMK A01 T00771007  RH  055%=      5-min Rain = 0
KPD2 160124Z 18001KT 08/M01 A301 RMK A01 T00771008  RH  055%=      5-min Rain = 0
KPD2 160125Z 20001KT 08/M01 A301 RMK A01 T00781007  RH  055%=      5-min Rain = 0
KPD2 160126Z 18001KT 08/M01 A301 RMK A01 T00791005  RH  056%=      5-min Rain = 0
KPD2 160127Z 19002KT 08/M00 A301 RMK A01 T00781003  RH  057%=      5-min Rain = 0
KPD2 160128Z 18001KT 07/M01 A301 RMK A01 T00741005  RH  057%=      5-min Rain = 0
KPD2 160129Z 18000KT 07/M00 A301 RMK A01 T00721004  RH  058%=      5-min Rain = 0
KPD2 160130Z 18000KT 07/M00 A301 RMK A01 T00701004  RH  059%=      5-min Rain = 0
KPD2 160131Z 19001KT 07/M00 A301 RMK A01 T00691003  RH  060%=      5-min Rain = 0
KPD2 160132Z 00000KT 07/M00 A301 RMK A01 T00681002  RH  061%=      5-min Rain = 0
KPD2 160133Z 19000KT 07/M00 A301 RMK A01 T00661002  RH  062%=      5-min Rain = 0
KPD2 160134Z 15001KT 07/M00 A301 RMK A01 T00651002  RH  062%=      5-min Rain = 0
KPD2 160135Z 13002KT 07/M00 A301 RMK A01 T00651002  RH  063%=      5-min Rain = 0
KPD2 160136Z 11001KT 06/M00 A301 RMK A01 T00641001  RH  063%=      5-min Rain = 0
KPD2 160137Z 09002KT 06/00 A301 RMK A01 T006400-0  RH  063%=      5-min Rain = 0
KPD2 160138Z 08000KT 06/00 A301 RMK A01 T00640001  RH  064%=      5-min Rain = 0
KPD2 160139Z 10000KT 06/00 A301 RMK A01 T00640000  RH  064%=      5-min Rain = 0
KPD2 160140Z 09001KT 06/00 A301 RMK A01 T00630001  RH  064%=      5-min Rain = 0
KPD2 160141Z 09000KT 06/00 A301 RMK A01 T00630002  RH  065%=      5-min Rain = 0
KPD2 160142Z 00000KT 06/00 A301 RMK A01 T00630002  RH  065%=      5-min Rain = 0
KPD2 160143Z 00000KT 06/00 A301 RMK A01 T00630001  RH  065%=      5-min Rain = 0
KPD2 160144Z 00000KT 06/00 A301 RMK A01 T00620001  RH  065%=      5-min Rain = 0
KPD2 160145Z 00000KT 06/00 A301 RMK A01 T00620001  RH  065%=      5-min Rain = 0
KPD2 160146Z 00000KT 06/00 A301 RMK A01 T00610000  RH  065%=      5-min Rain = 0
KPD2 160147Z 00000KT 06/M00 A301 RMK A01 T00591001  RH  065%=      5-min Rain = 0
KPD2 160148Z 00000KT 06/M00 A301 RMK A01 T00591001  RH  065%=      5-min Rain = 0
KPD2 160149Z 00000KT 06/M00 A301 RMK A01 T00581001  RH  066%=      5-min Rain = 0
KPD2 160150Z 00000KT 06/00 A301 RMK A01 T00580000  RH  066%=      5-min Rain = 0
KPD2 160151Z 00000KT 06/00 A301 RMK A01 T00580000  RH  066%=      5-min Rain = 0
KPD2 160152Z 00000KT 06/00 A301 RMK A01 T005800-0  RH  066%=      5-min Rain = 0
KPD2 160153Z 00000KT 06/00 A301 RMK A01 T005700-0  RH  067%=      5-min Rain = 0
KPD2 160154Z 00000KT 06/00 A301 RMK A01 T00570000  RH  067%=      5-min Rain = 0
KPD2 160155Z 07000KT 06/00 A301 RMK A01 T005700-0  RH  067%=      5-min Rain = 0
KPD2 160156Z 07001KT 06/00 A301 RMK A01 T00570001  RH  067%=      5-min Rain = 0
KPD2 160157Z 07001KT 06/00 A301 RMK A01 T00560001  RH  068%=      5-min Rain = 0
KPD2 160158Z 07001KT 06/00 A301 RMK A01 T00570002  RH  068%=      5-min Rain = 0
KPD2 160159Z 07001KT 06/00 A301 RMK A01 T00560000  RH  067%=      5-min Rain = 0
KPD2 160200Z 00000KT 06/00 A301 RMK A01 T00550000  RH  068%=      5-min Rain = 0
KPD2 160201Z 07000KT 06/00 A301 RMK A01 T00550001  RH  068%=      5-min Rain = 0
KPD2 160202Z 07000KT 06/00 A301 RMK A01 T00550001  RH  068%=      5-min Rain = 0
KPD2 160203Z 07000KT 05/00 A301 RMK A01 T00540001  RH  068%=      5-min Rain = 0
KPD2 160204Z 07001KT 05/00 A301 RMK A01 T00540000  RH  068%=      5-min Rain = 0
KPD2 160205Z 07001KT 05/00 A301 RMK A01 T005300-0  RH  069%=      5-min Rain = 0
KPD2 160206Z 07000KT 05/M00 A301 RMK A01 T00511001  RH  069%=      5-min Rain = 0
KPD2 160207Z 00000KT 05/M00 A3011 RMK A01 T00511001  RH  069%=      5-min Rain = 0
KPD2 160208Z 00000KT 05/00 A3011 RMK A01 T005000-0  RH  070%=      5-min Rain = 0
KPD2 160209Z 00000KT 05/00 A3011 RMK A01 T005000-0  RH  070%=      5-min Rain = 0
KPD2 160210Z 00000KT 05/00 A3011 RMK A01 T00500000  RH  070%=      5-min Rain = 0
KPD2 160211Z 00000KT 05/00 A3011 RMK A01 T00510001  RH  070%=      5-min Rain = 0
KPD2 160212Z 00000KT 05/00 A3011 RMK A01 T00520001  RH  070%=      5-min Rain = 0
KPD2 160213Z 00000KT 05/00 A3011 RMK A01 T00540001  RH  069%=      5-min Rain = 0
KPD2 160214Z 00000KT 05/00 A3011 RMK A01 T00540000  RH  068%=      5-min Rain = 0
KPD2 160215Z 00000KT 05/00 A3011 RMK A01 T00530000  RH  069%=      5-min Rain = 0
KPD2 160216Z 00000KT 05/00 A3011 RMK A01 T00520001  RH  070%=      5-min Rain = 0
KPD2 160217Z 00000KT 05/00 A3011 RMK A01 T00520002  RH  070%=      5-min Rain = 0
KPD2 160218Z 07001KT 05/00 A3011 RMK A01 T00520003  RH  071%=      5-min Rain = 0
KPD2 160219Z 07000KT 05/00 A3011 RMK A01 T00510002  RH  071%=      5-min Rain = 0
KPD2 160220Z 00000KT 05/00 A3011 RMK A01 T00500002  RH  071%=      5-min Rain = 0
KPD2 160221Z 07001KT 05/00 A3011 RMK A01 T00500002  RH  071%=      5-min Rain = 0
KPD2 160222Z 27002KT 05/00 A3011 RMK A01 T00490001  RH  071%=      5-min Rain = 0
KPD2 160223Z 27001KT 05/00 A3011 RMK A01 T00480002  RH  072%=      5-min Rain = 0
KPD2 160224Z 27001KT 05/00 A3011 RMK A01 T00480002  RH  072%=      5-min Rain = 0
KPD2 160225Z 27001KT 05/00 A3011 RMK A01 T00480002  RH  072%=      5-min Rain = 0
KPD2 160226Z 27001KT 05/00 A3011 RMK A01 T00470002  RH  072%=      5-min Rain = 0
KPD2 160227Z 27000KT 05/00 A3011 RMK A01 T00470003  RH  073%=      5-min Rain = 0
KPD2 160228Z 27000KT 05/00 A3011 RMK A01 T00470003  RH  073%=      5-min Rain = 0
KPD2 160229Z 29001KT 05/00 A3011 RMK A01 T00480003  RH  073%=      5-min Rain = 0
KPD2 160230Z 32001KT 05/00 A3011 RMK A01 T00490003  RH  072%=      5-min Rain = 0
KPD2 160231Z 31001KT 05/00 A3011 RMK A01 T00500002  RH  071%=      5-min Rain = 0
KPD2 160232Z 32002KT 05/00 A3011 RMK A01 T00500002  RH  071%=      5-min Rain = 0
KPD2 160233Z 32001KT 05/00 A3011 RMK A01 T00500002  RH  071%=      5-min Rain = 0
KPD2 160234Z 32001KT 05/00 A3011 RMK A01 T00510001  RH  070%=      5-min Rain = 0
KPD2 160235Z 31002KT 05/00 A3011 RMK A01 T00520002  RH  070%=      5-min Rain = 0
KPD2 160236Z 31002KT 05/00 A3011 RMK A01 T00500001  RH  071%=      5-min Rain = 0
KPD2 160237Z 31002KT 05/00 A3011 RMK A01 T00490001  RH  071%=      5-min Rain = 0
KPD2 160238Z 32002KT 05/00 A3011 RMK A01 T00480001  RH  072%=      5-min Rain = 0
KPD2 160239Z 33002KT 05/00 A3011 RMK A01 T00480001  RH  072%=      5-min Rain = 0
KPD2 160240Z 34002KT 05/00 A3011 RMK A01 T00480001  RH  071%=      5-min Rain = 0
KPD2 160241Z 35002KT 05/00 A3011 RMK A01 T00490001  RH  071%=      5-min Rain = 0
KPD2 160242Z 35002KT 05/00 A3011 RMK A01 T00490000  RH  071%=      5-min Rain = 0
KPD2 160243Z 34001KT 05/00 A3011 RMK A01 T00490000  RH  071%=      5-min Rain = 0
KPD2 160244Z 33001KT 05/00 A3011 RMK A01 T00470000  RH  072%=      5-min Rain = 0
KPD2 160245Z 34002KT 05/00 A3011 RMK A01 T00450001  RH  073%=      5-min Rain = 0
KPD2 160246Z 35002KT 04/00 A3011 RMK A01 T00440001  RH  074%=      5-min Rain = 0
KPD2 160247Z 33001KT 04/00 A3011 RMK A01 T00440002  RH  074%=      5-min Rain = 0
KPD2 160248Z 26003KT 04/00 A3011 RMK A01 T004200-0  RH  074%=      5-min Rain = 0
KPD2 160249Z 27002KT 04/00 A3011 RMK A01 T004000-0  RH  075%=      5-min Rain = 0
KPD2 160250Z 27001KT 04/M00 A3011 RMK A01 T00381001  RH  075%=      5-min Rain = 0
KPD2 160251Z 27001KT 04/M00 A3011 RMK A01 T00381001  RH  076%=      5-min Rain = 0
KPD2 160252Z 27001KT 04/00 A3011 RMK A01 T003700-0  RH  077%=      5-min Rain = 0
KPD2 160253Z 28001KT 04/00 A3011 RMK A01 T00360002  RH  078%=      5-min Rain = 0
KPD2 160254Z 28000KT 04/00 A3011 RMK A01 T00360002  RH  078%=      5-min Rain = 0
KPD2 160255Z 28000KT 04/00 A3011 RMK A01 T00370002  RH  078%=      5-min Rain = 0
KPD2 160256Z 33001KT 04/00 A3011 RMK A01 T00380001  RH  077%=      5-min Rain = 0
KPD2 160257Z 35001KT 04/00 A3011 RMK A01 T00380001  RH  077%=      5-min Rain = 0
KPD2 160258Z 34001KT 04/00 A3011 RMK A01 T00380001  RH  077%=      5-min Rain = 0
KPD2 160259Z 33002KT 04/00 A3011 RMK A01 T00380001  RH  076%=      5-min Rain = 0
KPD2 160300Z 34002KT 04/00 A3011 RMK A01 T00380000  RH  076%=      5-min Rain = 0
KPD2 160301Z 34001KT 04/00 A3011 RMK A01 T00380000  RH  076%=      5-min Rain = 0
KPD2 160302Z 33001KT 04/00 A3011 RMK A01 T00380000  RH  076%=      5-min Rain = 0
KPD2 160303Z 34001KT 04/00 A3011 RMK A01 T003800-0  RH  076%=      5-min Rain = 0
KPD2 160304Z 34001KT 04/M00 A3011 RMK A01 T00381001  RH  076%=      5-min Rain = 0
KPD2 160305Z 34001KT 04/00 A3011 RMK A01 T003900-0  RH  076%=      5-min Rain = 0
KPD2 160306Z 32001KT 04/00 A3011 RMK A01 T003900-0  RH  076%=      5-min Rain = 0
KPD2 160307Z 30001KT 04/M00 A3011 RMK A01 T00381001  RH  075%=      5-min Rain = 0
KPD2 160308Z 29000KT 04/M00 A3011 RMK A01 T00381002  RH  075%=      5-min Rain = 0
KPD2 160309Z 00000KT 04/M00 A3011 RMK A01 T00371002  RH  076%=      5-min Rain = 0
KPD2 160310Z 28000KT 04/M00 A3011 RMK A01 T00361002  RH  076%=      5-min Rain = 0
KPD2 160311Z 29001KT 04/M00 A3012 RMK A01 T00361003  RH  076%=      5-min Rain = 0
KPD2 160312Z 00000KT 04/M00 A3012 RMK A01 T00361002  RH  076%=      5-min Rain = 0
KPD2 160313Z 00000KT 04/M00 A3012 RMK A01 T00351003  RH  076%=      5-min Rain = 0
KPD2 160314Z 31001KT 04/M00 A3012 RMK A01 T00351002  RH  077%=      5-min Rain = 0
KPD2 160315Z 32000KT 03/M00 A3012 RMK A01 T00341001  RH  078%=      5-min Rain = 0
KPD2 160316Z 00000KT 03/M00 A3012 RMK A01 T00331001  RH  078%=      5-min Rain = 0
KPD2 160317Z 27001KT 03/M00 A3012 RMK A01 T00331001  RH  078%=      5-min Rain = 0
KPD2 160318Z 28001KT 03/M00 A3012 RMK A01 T00331002  RH  078%=      5-min Rain = 0
KPD2 160319Z 00000KT 03/M00 A3012 RMK A01 T00321003  RH  078%=      5-min Rain = 0
KPD2 160320Z 00000KT 03/M00 A3012 RMK A01 T00311003  RH  078%=      5-min Rain = 0
KPD2 160321Z 00000KT 03/M00 A3012 RMK A01 T00311003  RH  078%=      5-min Rain = 0
KPD2 160322Z 31000KT 03/M00 A3012 RMK A01 T00311003  RH  078%=      5-min Rain = 0
KPD2 160323Z 02000KT 03/M00 A3012 RMK A01 T00311003  RH  078%=      5-min Rain = 0
KPD2 160324Z 02000KT 03/M00 A3012 RMK A01 T00311004  RH  078%=      5-min Rain = 0
KPD2 160325Z 00000KT 03/M00 A3012 RMK A01 T00321003  RH  077%=      5-min Rain = 0
KPD2 160326Z 00000KT 03/M00 A3012 RMK A01 T00321004  RH  077%=      5-min Rain = 0
KPD2 160327Z 00000KT 03/M00 A3012 RMK A01 T00331004  RH  077%=      5-min Rain = 0
KPD2 160328Z 00000KT 03/M01 A3012 RMK A01 T00331005  RH  076%=      5-min Rain = 0
KPD2 160329Z 36000KT 03/M01 A3012 RMK A01 T00331005  RH  076%=      5-min Rain = 0
KPD2 160330Z 21001KT 03/M01 A3012 RMK A01 T00341005  RH  076%=      5-min Rain = 0
KPD2 160331Z 22001KT 03/M01 A3012 RMK A01 T00341005  RH  076%=      5-min Rain = 0
KPD2 160332Z 22001KT 03/M01 A3012 RMK A01 T00341005  RH  076%=      5-min Rain = 0
KPD2 160333Z 22001KT 03/M01 A3012 RMK A01 T00341005  RH  076%=      5-min Rain = 0
KPD2 160334Z 22001KT 03/M00 A3012 RMK A01 T00341004  RH  076%=      5-min Rain = 0
KPD2 160335Z 22001KT 03/M00 A3012 RMK A01 T00341004  RH  076%=      5-min Rain = 0
KPD2 160336Z 22000KT 03/M00 A3012 RMK A01 T00331004  RH  077%=      5-min Rain = 0
KPD2 160337Z 00000KT 03/M00 A3012 RMK A01 T00321004  RH  077%=      5-min Rain = 0
KPD2 160338Z 00000KT 03/M01 A3012 RMK A01 T00311005  RH  077%=      5-min Rain = 0
KPD2 160339Z 00000KT 03/M01 A3012 RMK A01 T00311005  RH  077%=      5-min Rain = 0
KPD2 160340Z 00000KT 03/M01 A3012 RMK A01 T00301005  RH  078%=      5-min Rain = 0
KPD2 160341Z 00000KT 03/M01 A3012 RMK A01 T00301005  RH  078%=      5-min Rain = 0
KPD2 160342Z 00000KT 03/M01 A3012 RMK A01 T00291006  RH  077%=      5-min Rain = 0
KPD2 160343Z 33000KT 03/M01 A3012 RMK A01 T00281008  RH  077%=      5-min Rain = 0
KPD2 160344Z 01002KT 03/M01 A3012 RMK A01 T00261007  RH  078%=      5-min Rain = 0
KPD2 160345Z 02002KT 02/M01 A3012 RMK A01 T00241007  RH  080%=      5-min Rain = 0
KPD2 160346Z 02001KT 02/M01 A3012 RMK A01 T00241005  RH  081%=      5-min Rain = 0
KPD2 160347Z 02000KT 02/M00 A3012 RMK A01 T00231004  RH  082%=      5-min Rain = 0
KPD2 160348Z 00000KT 02/M00 A3012 RMK A01 T00241003  RH  083%=      5-min Rain = 0
KPD2 160349Z 00000KT 02/M00 A3012 RMK A01 T00241002  RH  083%=      5-min Rain = 0
KPD2 160350Z 00000KT 02/M00 A3012 RMK A01 T00241002  RH  083%=      5-min Rain = 0
KPD2 160351Z 00000KT 02/M00 A3012 RMK A01 T00241003  RH  082%=      5-min Rain = 0
KPD2 160352Z 26000KT 02/M00 A3012 RMK A01 T00241003  RH  082%=      5-min Rain = 0
KPD2 160353Z 20000KT 02/M00 A3012 RMK A01 T00231004  RH  083%=      5-min Rain = 0
KPD2 160354Z 20001KT 02/M00 A3012 RMK A01 T00231002  RH  083%=      5-min Rain = 0
KPD2 160355Z 20001KT 02/M00 A3012 RMK A01 T00231002  RH  084%=      5-min Rain = 0
KPD2 160356Z 20000KT 02/M00 A3012 RMK A01 T00231002  RH  084%=      5-min Rain = 0
KPD2 160357Z 21001KT 02/M00 A3012 RMK A01 T00221003  RH  083%=      5-min Rain = 0
KPD2 160358Z 20001KT 02/M01 A3012 RMK A01 T00211006  RH  082%=      5-min Rain = 0
KPD2 160359Z 20001KT 02/M01 A3012 RMK A01 T00201007  RH  082%=      5-min Rain = 0
KPD2 160400Z 22001KT 02/M01 A3012 RMK A01 T00191007  RH  083%=      5-min Rain = 0
KPD2 160401Z 21001KT 02/M01 A3012 RMK A01 T00181008  RH  083%=      5-min Rain = 0
KPD2 160402Z 24001KT 02/M01 A3012 RMK A01 T00181008  RH  083%=      5-min Rain = 0
KPD2 160403Z 24000KT 02/M01 A3012 RMK A01 T00171009  RH  083%=      5-min Rain = 0
KPD2 160404Z 00000KT 02/M01 A3012 RMK A01 T00161009  RH  084%=      5-min Rain = 0
KPD2 160405Z 24000KT 02/M01 A3012 RMK A01 T00161007  RH  085%=      5-min Rain = 0
KPD2 160406Z 24000KT 02/M01 A3012 RMK A01 T00161006  RH  085%=      5-min Rain = 0
KPD2 160407Z 00000KT 02/M00 A3012 RMK A01 T00171004  RH  086%=      5-min Rain = 0
KPD2 160408Z 00000KT 02/M00 A3012 RMK A01 T00191002  RH  086%=      5-min Rain = 0
KPD2 160409Z 00000KT 02/M00 A3011 RMK A01 T00201002  RH  085%=      5-min Rain = 0
KPD2 160410Z 00000KT 02/M00 A3011 RMK A01 T00211002  RH  085%=      5-min Rain = 0
KPD2 160411Z 00000KT 02/M00 A3012 RMK A01 T00211004  RH  084%=      5-min Rain = 0
KPD2 160412Z 00000KT 02/M00 A3011 RMK A01 T00211004  RH  084%=      5-min Rain = 0
KPD2 160413Z 00000KT 02/M00 A3011 RMK A01 T00211003  RH  084%=      5-min Rain = 0
KPD2 160414Z 00000KT 02/M00 A3012 RMK A01 T00221003  RH  084%=      5-min Rain = 0
KPD2 160415Z 00000KT 02/M00 A3012 RMK A01 T00221004  RH  083%=      5-min Rain = 0
KPD2 160416Z 00000KT 02/M00 A3012 RMK A01 T00211004  RH  083%=      5-min Rain = 0
KPD2 160417Z 00000KT 02/M01 A3012 RMK A01 T00211005  RH  083%=      5-min Rain = 0
KPD2 160418Z 00000KT 02/M00 A3012 RMK A01 T00211004  RH  083%=      5-min Rain = 0
KPD2 160419Z 00000KT 02/M00 A3012 RMK A01 T00221003  RH  084%=      5-min Rain = 0
KPD2 160420Z 00000KT 02/M00 A3012 RMK A01 T00221003  RH  083%=      5-min Rain = 0
KPD2 160421Z 00000KT 02/M00 A3012 RMK A01 T00231003  RH  083%=      5-min Rain = 0
KPD2 160422Z 00000KT 02/M00 A3012 RMK A01 T00231004  RH  083%=      5-min Rain = 0
KPD2 160423Z 24000KT 02/M01 A3012 RMK A01 T00221006  RH  082%=      5-min Rain = 0
KPD2 160424Z 00000KT 02/M01 A3011 RMK A01 T00201009  RH  081%=      5-min Rain = 0
KPD2 160425Z 00000KT 02/M01 A3011 RMK A01 T00201008  RH  082%=      5-min Rain = 0
KPD2 160426Z 00000KT 02/M01 A3011 RMK A01 T00191008  RH  083%=      5-min Rain = 0
KPD2 160427Z 00000KT 02/M01 A3011 RMK A01 T00191007  RH  083%=      5-min Rain = 0
KPD2 160428Z 00000KT 02/M01 A3011 RMK A01 T00181007  RH  083%=      5-min Rain = 0
KPD2 160429Z 02000KT 02/M01 A3011 RMK A01 T00181007  RH  084%=      5-min Rain = 0
KPD2 160430Z 01002KT 02/M01 A3011 RMK A01 T00181007  RH  084%=      5-min Rain = 0
KPD2 160431Z 00001KT 02/M01 A3011 RMK A01 T00181006  RH  084%=      5-min Rain = 0
KPD2 160432Z 36001KT 02/M01 A3011 RMK A01 T00181007  RH  084%=      5-min Rain = 0
KPD2 160433Z 00002KT 02/M01 A3011 RMK A01 T00171007  RH  084%=      5-min Rain = 0
KPD2 160434Z 36002KT 02/M01 A3011 RMK A01 T00171006  RH  084%=      5-min Rain = 0
KPD2 160435Z 00002KT 02/M01 A3011 RMK A01 T00171006  RH  085%=      5-min Rain = 0
KPD2 160436Z 01003KT 02/M01 A3011 RMK A01 T00161005  RH  086%=      5-min Rain = 0
KPD2 160437Z 02002KT 02/M00 A3011 RMK A01 T00161003  RH  087%=      5-min Rain = 0
KPD2 160438Z 02002KT 02/M01 A3011 RMK A01 T00151005  RH  087%=      5-min Rain = 0
KPD2 160439Z 01001KT 01/M01 A3011 RMK A01 T00131007  RH  086%=      5-min Rain = 0
KPD2 160440Z 32000KT 01/M01 A3011 RMK A01 T00131006  RH  087%=      5-min Rain = 0
KPD2 160441Z 25002KT 01/M01 A3011 RMK A01 T00121007  RH  087%=      5-min Rain = 0
KPD2 160442Z 23002KT 01/M01 A3011 RMK A01 T00121007  RH  088%=      5-min Rain = 0
KPD2 160443Z 17000KT 01/M01 A3011 RMK A01 T00111008  RH  088%=      5-min Rain = 0
KPD2 160444Z 22000KT 01/M01 A3011 RMK A01 T00101009  RH  087%=      5-min Rain = 0
KPD2 160445Z 18001KT 01/M01 A3011 RMK A01 T00091010  RH  087%=      5-min Rain = 0
KPD2 160446Z 12001KT 01/M01 A3011 RMK A01 T00081009  RH  088%=      5-min Rain = 0
KPD2 160447Z 15000KT 01/M01 A3011 RMK A01 T00081009  RH  089%=      5-min Rain = 0
KPD2 160448Z 21000KT 01/M01 A3011 RMK A01 T00091008  RH  089%=      5-min Rain = 0
KPD2 160449Z 00000KT 01/M01 A3011 RMK A01 T00091006  RH  089%=      5-min Rain = 0
KPD2 160450Z 00000KT 01/M01 A3011 RMK A01 T00091007  RH  089%=      5-min Rain = 0
KPD2 160451Z 00000KT 01/M01 A3011 RMK A01 T00101007  RH  089%=      5-min Rain = 0
KPD2 160452Z 00000KT 01/M01 A3011 RMK A01 T00091007  RH  089%=      5-min Rain = 0
KPD2 160453Z 28000KT 01/M01 A3011 RMK A01 T00091008  RH  088%=      5-min Rain = 0
KPD2 160454Z 30001KT 01/M01 A3011 RMK A01 T00091007  RH  089%=      5-min Rain = 0
KPD2 160455Z 36001KT 01/M01 A3011 RMK A01 T00101006  RH  089%=      5-min Rain = 0
KPD2 160456Z 00001KT 01/M00 A3011 RMK A01 T00111004  RH  090%=      5-min Rain = 0
KPD2 160457Z 35001KT 01/M00 A3011 RMK A01 T00121003  RH  089%=      5-min Rain = 0
KPD2 160458Z 34001KT 01/M00 A3011 RMK A01 T00131003  RH  089%=      5-min Rain = 0
KPD2 160459Z 34001KT 01/M00 A3011 RMK A01 T00141003  RH  089%=      5-min Rain = 0
KPD2 160500Z 34000KT 01/M00 A3011 RMK A01 T00141003  RH  088%=      5-min Rain = 0
KPD2 160501Z 31000KT 01/M00 A3011 RMK A01 T00141004  RH  088%=      5-min Rain = 0
KPD2 160502Z 31001KT 02/M00 A3011 RMK A01 T00151004  RH  087%=      5-min Rain = 0
KPD2 160503Z 34001KT 02/M00 A3011 RMK A01 T00161003  RH  087%=      5-min Rain = 0
KPD2 160504Z 00001KT 02/M01 A3011 RMK A01 T00161005  RH  086%=      5-min Rain = 0
KPD2 160505Z 00001KT 02/M01 A3011 RMK A01 T00161006  RH  085%=      5-min Rain = 0
KPD2 160506Z 28001KT 02/M01 A3011 RMK A01 T00161007  RH  085%=      5-min Rain = 0
KPD2 160507Z 29000KT 01/M01 A3011 RMK A01 T00141009  RH  084%=      5-min Rain = 0
KPD2 160508Z 02002KT 01/M01 A3011 RMK A01 T00141009  RH  085%=      5-min Rain = 0
KPD2 160509Z 01001KT 01/M01 A3011 RMK A01 T00141008  RH  086%=      5-min Rain = 0
KPD2 160510Z 30001KT 01/M01 A3011 RMK A01 T00141008  RH  086%=      5-min Rain = 0
KPD2 160511Z 32001KT 01/M01 A3011 RMK A01 T00121010  RH  085%=      5-min Rain = 0
KPD2 160512Z 29002KT 01/M01 A3011 RMK A01 T00121010  RH  086%=      5-min Rain = 0
KPD2 160513Z 28000KT 01/M01 A301 RMK A01 T00111010  RH  086%=      5-min Rain = 0
KPD2 160514Z 21001KT 01/M01 A301 RMK A01 T00101011  RH  086%=      5-min Rain = 0
KPD2 160515Z 24001KT 01/M01 A301 RMK A01 T00091012  RH  086%=      5-min Rain = 0
KPD2 160516Z 25004KT 01/M01 A301 RMK A01 T00081013  RH  086%=      5-min Rain = 0
KPD2 160517Z 22001KT 01/M02 A301 RMK A01 T00061015  RH  086%=      5-min Rain = 0
KPD2 160518Z 09002KT 01/M01 A301 RMK A01 T00051014  RH  087%=      5-min Rain = 0
KPD2 160519Z 13000KT 01/M01 A301 RMK A01 T00051013  RH  088%=      5-min Rain = 0
KPD2 160520Z 19001KT 01/M01 A301 RMK A01 T00051012  RH  089%=      5-min Rain = 0
KPD2 160521Z 21000KT 01/M01 A301 RMK A01 T00061010  RH  089%=      5-min Rain = 0
KPD2 160522Z 00000KT 01/M01 A301 RMK A01 T00061010  RH  089%=      5-min Rain = 0
KPD2 160523Z 35001KT 01/M01 A301 RMK A01 T00071009  RH  089%=      5-min Rain = 0
KPD2 160524Z 35000KT 01/M01 A301 RMK A01 T00081009  RH  088%=      5-min Rain = 0
KPD2 160525Z 00000KT 01/M01 A301 RMK A01 T00071010  RH  088%=      5-min Rain = 0
KPD2 160526Z 27001KT 01/M01 A301 RMK A01 T00061012  RH  088%=      5-min Rain = 0
KPD2 160527Z 31001KT 01/M01 A301 RMK A01 T00051013  RH  087%=      5-min Rain = 0
KPD2 160528Z 36001KT 00/M01 A301 RMK A01 T00041014  RH  088%=      5-min Rain = 0
KPD2 160529Z 01000KT 01/M01 A301 RMK A01 T00051011  RH  089%=      5-min Rain = 0
KPD2 160530Z 29000KT 01/M01 A301 RMK A01 T00051010  RH  090%=      5-min Rain = 0
KPD2 160531Z 29000KT 01/M01 A301 RMK A01 T00061010  RH  089%=      5-min Rain = 0
KPD2 160532Z 29000KT 01/M01 A301 RMK A01 T00071008  RH  090%=      5-min Rain = 0
KPD2 160533Z 29000KT 01/M01 A301 RMK A01 T00081008  RH  089%=      5-min Rain = 0
KPD2 160534Z 30001KT 01/M01 A301 RMK A01 T00091008  RH  089%=      5-min Rain = 0
KPD2 160535Z 36001KT 01/M01 A301 RMK A01 T00091008  RH  088%=      5-min Rain = 0
KPD2 160536Z 35001KT 01/M01 A301 RMK A01 T00101008  RH  088%=      5-min Rain = 0
KPD2 160537Z 30000KT 01/M01 A301 RMK A01 T00101009  RH  087%=      5-min Rain = 0
KPD2 160538Z 30001KT 01/M01 A301 RMK A01 T00091010  RH  087%=      5-min Rain = 0
KPD2 160539Z 33001KT 01/M01 A301 RMK A01 T00091011  RH  087%=      5-min Rain = 0
KPD2 160540Z 34001KT 01/M01 A301 RMK A01 T00091011  RH  087%=      5-min Rain = 0
KPD2 160541Z 00001KT 01/M01 A301 RMK A01 T00081010  RH  087%=      5-min Rain = 0
KPD2 160542Z 29000KT 01/M01 A301 RMK A01 T00091010  RH  088%=      5-min Rain = 0
KPD2 160543Z 29001KT 01/M01 A301 RMK A01 T00091010  RH  087%=      5-min Rain = 0
KPD2 160544Z 29000KT 01/M01 A301 RMK A01 T00081011  RH  087%=      5-min Rain = 0
KPD2 160545Z 31001KT 01/M01 A301 RMK A01 T00081011  RH  087%=      5-min Rain = 0
KPD2 160546Z 31002KT 01/M01 A301 RMK A01 T00081011  RH  087%=      5-min Rain = 0
KPD2 160547Z 31002KT 01/M01 A301 RMK A01 T00071013  RH  087%=      5-min Rain = 0
KPD2 160548Z 29002KT 01/M01 A301 RMK A01 T00061013  RH  087%=      5-min Rain = 0
KPD2 160549Z 32001KT 01/M01 A301 RMK A01 T00051014  RH  087%=      5-min Rain = 0
KPD2 160550Z 28002KT 00/M01 A301 RMK A01 T00041014  RH  088%=      5-min Rain = 0
KPD2 160551Z 29002KT 00/M01 A301 RMK A01 T00031014  RH  088%=      5-min Rain = 0
KPD2 160552Z 29002KT 00/M02 A301 RMK A01 T00021015  RH  088%=      5-min Rain = 0
KPD2 160553Z 31002KT 00/M02 A301 RMK A01 T00011016  RH  088%=      5-min Rain = 0
KPD2 160554Z 28001KT 00/02 A301 RMK A01 T00-00-17  RH  089%=      5-min Rain = 0
KPD2 160555Z 29001KT M00/M02 A301 RMK A01 T10011017  RH  089%=      5-min Rain = 0
KPD2 160556Z 31001KT M00/M02 A301 RMK A01 T10021018  RH  089%=      5-min Rain = 0
KPD2 160557Z 00000KT M00/M02 A301 RMK A01 T10021018  RH  089%=      5-min Rain = 0
KPD2 160558Z 36001KT M00/M02 A301 RMK A01 T10031017  RH  090%=      5-min Rain = 0
KPD2 160559Z 02001KT M00/M02 A301 RMK A01 T10021015  RH  091%=      5-min Rain = 0

Page generated in 0.2857 seconds.